Observation data for Menard on 06/19/2019      Previous  Date  Next       Current Mesonet Observations  Soil Data  Daily Summary Page  Observations in Plain Language
KMD1 190500Z 28004KT 26/13 A2987 RMK A01 T02620129  RH  044%=      5-min Rain = 0
KMD1 190501Z 29003KT 26/13 A2987 RMK A01 T02620131  RH  044%=      5-min Rain = 0
KMD1 190502Z 29003KT 26/13 A2987 RMK A01 T02620129  RH  044%=      5-min Rain = 0
KMD1 190503Z 29003KT 26/13 A2987 RMK A01 T02620128  RH  044%=      5-min Rain = 0
KMD1 190504Z 30003KT 26/13 A2987 RMK A01 T02620129  RH  044%=      5-min Rain = 0
KMD1 190505Z 29003KT 26/14 A2987 RMK A01 T02620135  RH  046%=      5-min Rain = 0
KMD1 190506Z 29003KT 26/14 A2987 RMK A01 T02600137  RH  047%=      5-min Rain = 0
KMD1 190507Z 29003KT 26/14 A2987 RMK A01 T02580138  RH  047%=      5-min Rain = 0
KMD1 190508Z 29003KT 26/14 A2987 RMK A01 T02560138  RH  048%=      5-min Rain = 0
KMD1 190509Z 30004KT 25/14 A2987 RMK A01 T02540136  RH  048%=      5-min Rain = 0
KMD1 190510Z 32004KT 25/14 A2987 RMK A01 T02530138  RH  049%=      5-min Rain = 0
KMD1 190511Z 32003KT 25/14 A2987 RMK A01 T02510143  RH  051%=      5-min Rain = 0
KMD1 190512Z 32003KT 25/14 A2987 RMK A01 T02490140  RH  051%=      5-min Rain = 0
KMD1 190513Z 33004KT 25/15 A2987 RMK A01 T02470145  RH  053%=      5-min Rain = 0
KMD1 190514Z 32004KT 24/15 A2987 RMK A01 T02420151  RH  057%=      5-min Rain = 0
KMD1 190515Z 32005KT 24/15 A2987 RMK A01 T02360150  RH  059%=      5-min Rain = 0
KMD1 190516Z 32004KT 23/15 A2988 RMK A01 T02320150  RH  060%=      5-min Rain = 0
KMD1 190517Z 32003KT 23/15 A2988 RMK A01 T02300147  RH  059%=      5-min Rain = 0
KMD1 190518Z 31003KT 23/14 A2988 RMK A01 T02300143  RH  058%=      5-min Rain = 0
KMD1 190519Z 32003KT 23/14 A2988 RMK A01 T02310143  RH  057%=      5-min Rain = 0
KMD1 190520Z 31001KT 23/15 A2988 RMK A01 T02320148  RH  059%=      5-min Rain = 0
KMD1 190521Z 28001KT 23/15 A2988 RMK A01 T02310146  RH  059%=      5-min Rain = 0
KMD1 190522Z 28002KT 23/14 A2988 RMK A01 T02310144  RH  058%=      5-min Rain = 0
KMD1 190523Z 28002KT 23/14 A2988 RMK A01 T02300142  RH  058%=      5-min Rain = 0
KMD1 190524Z 28002KT 23/14 A2988 RMK A01 T02310143  RH  058%=      5-min Rain = 0
KMD1 190525Z 28003KT 23/14 A2988 RMK A01 T02300142  RH  057%=      5-min Rain = 0
KMD1 190526Z 28003KT 23/14 A2988 RMK A01 T02310139  RH  056%=      5-min Rain = 0
KMD1 190527Z 26002KT 23/14 A2988 RMK A01 T02320141  RH  056%=      5-min Rain = 0
KMD1 190528Z 27002KT 23/14 A2988 RMK A01 T02340138  RH  055%=      5-min Rain = 0
KMD1 190529Z 27002KT 24/13 A2988 RMK A01 T02350132  RH  052%=      5-min Rain = 0
KMD1 190530Z 28002KT 24/14 A2988 RMK A01 T02370135  RH  053%=      5-min Rain = 0
KMD1 190531Z 28003KT 24/13 A2988 RMK A01 T02380131  RH  051%=      5-min Rain = 0
KMD1 190532Z 28003KT 24/14 A2988 RMK A01 T02400135  RH  052%=      5-min Rain = 0
KMD1 190533Z 27003KT 24/14 A2988 RMK A01 T02410139  RH  053%=      5-min Rain = 0
KMD1 190534Z 26001KT 24/15 A2989 RMK A01 T02410147  RH  056%=      5-min Rain = 0
KMD1 190535Z 24001KT 24/15 A2988 RMK A01 T02390148  RH  057%=      5-min Rain = 0
KMD1 190536Z 18002KT 24/17 A2989 RMK A01 T02350165  RH  065%=      5-min Rain = 0
KMD1 190537Z 17001KT 23/16 A2989 RMK A01 T02280161  RH  066%=      5-min Rain = 0
KMD1 190538Z 20000KT 22/16 A2989 RMK A01 T02230157  RH  066%=      5-min Rain = 0
KMD1 190539Z 26001KT 22/15 A2989 RMK A01 T02210148  RH  063%=      5-min Rain = 0
KMD1 190540Z 28000KT 22/15 A2989 RMK A01 T02210145  RH  062%=      5-min Rain = 0
KMD1 190541Z 00000KT 22/15 A2989 RMK A01 T02220145  RH  062%=      5-min Rain = 0
KMD1 190542Z 00000KT 22/15 A2989 RMK A01 T02230147  RH  062%=      5-min Rain = 0
KMD1 190543Z 00000KT 22/15 A2989 RMK A01 T02230148  RH  062%=      5-min Rain = 0
KMD1 190544Z 00000KT 22/15 A2989 RMK A01 T02240148  RH  062%=      5-min Rain = 0
KMD1 190545Z 15000KT 23/15 A2989 RMK A01 T02250149  RH  062%=      5-min Rain = 0
KMD1 190546Z 00000KT 22/16 A2989 RMK A01 T02240155  RH  065%=      5-min Rain = 0
KMD1 190547Z 23000KT 22/15 A299 RMK A01 T02230150  RH  063%=      5-min Rain = 0
KMD1 190548Z 25002KT 22/15 A299 RMK A01 T02230150  RH  063%=      5-min Rain = 0
KMD1 190549Z 25003KT 22/15 A299 RMK A01 T02230154  RH  065%=      5-min Rain = 0
KMD1 190550Z 26002KT 22/16 A299 RMK A01 T02230156  RH  066%=      5-min Rain = 0
KMD1 190551Z 25002KT 22/16 A299 RMK A01 T02220155  RH  066%=      5-min Rain = 0
KMD1 190552Z 22001KT 22/15 A299 RMK A01 T02210152  RH  065%=      5-min Rain = 0
KMD1 190553Z 20001KT 22/15 A299 RMK A01 T02210153  RH  065%=      5-min Rain = 0
KMD1 190554Z 22002KT 22/15 A299 RMK A01 T02210154  RH  066%=      5-min Rain = 0
KMD1 190555Z 25002KT 22/15 A299 RMK A01 T02200153  RH  065%=      5-min Rain = 0
KMD1 190556Z 21001KT 22/16 A299 RMK A01 T02200156  RH  067%=      5-min Rain = 0
KMD1 190557Z 16000KT 22/16 A299 RMK A01 T02190160  RH  069%=      5-min Rain = 0
KMD1 190558Z 00000KT 22/16 A299 RMK A01 T02170163  RH  071%=      5-min Rain = 0
KMD1 190559Z 18000KT 22/17 A299 RMK A01 T02160165  RH  073%=      5-min Rain = 0
KMD1 190600Z 18000KT 21/17 A299 RMK A01 T02140166  RH  074%=      5-min Rain = 0
KMD1 190601Z 00000KT 21/16 A299 RMK A01 T02120162  RH  073%=      5-min Rain = 0
KMD1 190602Z 10000KT 21/16 A299 RMK A01 T02110162  RH  074%=      5-min Rain = 0
KMD1 190603Z 09001KT 21/16 A299 RMK A01 T02110162  RH  074%=      5-min Rain = 0
KMD1 190604Z 10002KT 21/16 A299 RMK A01 T02110158  RH  072%=      5-min Rain = 0
KMD1 190605Z 09002KT 21/17 A299 RMK A01 T02120166  RH  075%=      5-min Rain = 0
KMD1 190606Z 09001KT 21/17 A299 RMK A01 T02110169  RH  077%=      5-min Rain = 0
KMD1 190607Z 08001KT 21/17 A299 RMK A01 T02100168  RH  077%=      5-min Rain = 0
KMD1 190608Z 07002KT 21/17 A299 RMK A01 T02080169  RH  078%=      5-min Rain = 0
KMD1 190609Z 07002KT 21/17 A299 RMK A01 T02070167  RH  078%=      5-min Rain = 0
KMD1 190610Z 07003KT 21/17 A299 RMK A01 T02070170  RH  079%=      5-min Rain = 0
KMD1 190611Z 06003KT 21/17 A299 RMK A01 T02060173  RH  081%=      5-min Rain = 0
KMD1 190612Z 05003KT 21/17 A299 RMK A01 T02050174  RH  083%=      5-min Rain = 0
KMD1 190613Z 04003KT 21/17 A299 RMK A01 T02050174  RH  083%=      5-min Rain = 0
KMD1 190614Z 05003KT 20/17 A2991 RMK A01 T02040172  RH  081%=      5-min Rain = 0
KMD1 190615Z 05003KT 20/17 A2991 RMK A01 T02030169  RH  081%=      5-min Rain = 0
KMD1 190616Z 06003KT 20/17 A2991 RMK A01 T02030168  RH  080%=      5-min Rain = 0
KMD1 190617Z 05003KT 20/17 A2991 RMK A01 T02020168  RH  081%=      5-min Rain = 0
KMD1 190618Z 05003KT 20/17 A2991 RMK A01 T02020165  RH  079%=      5-min Rain = 0
KMD1 190619Z 04003KT 20/17 A2991 RMK A01 T02030167  RH  080%=      5-min Rain = 0
KMD1 190620Z 04003KT 20/17 A2991 RMK A01 T02020165  RH  079%=      5-min Rain = 0
KMD1 190621Z 02004KT 20/16 A2991 RMK A01 T02030163  RH  078%=      5-min Rain = 0
KMD1 190622Z 03004KT 20/16 A2991 RMK A01 T02040164  RH  078%=      5-min Rain = 0
KMD1 190623Z 04003KT 20/16 A2991 RMK A01 T02040164  RH  078%=      5-min Rain = 0
KMD1 190624Z 03003KT 20/17 A2991 RMK A01 T02030166  RH  079%=      5-min Rain = 0
KMD1 190625Z 03003KT 20/16 A2991 RMK A01 T02020163  RH  078%=      5-min Rain = 0
KMD1 190626Z 03003KT 20/16 A2991 RMK A01 T02020160  RH  077%=      5-min Rain = 0
KMD1 190627Z 03003KT 20/16 A2991 RMK A01 T02020160  RH  077%=      5-min Rain = 0
KMD1 190628Z 02002KT 20/16 A2991 RMK A01 T02030161  RH  077%=      5-min Rain = 0
KMD1 190629Z 03002KT 20/16 A2991 RMK A01 T02030160  RH  076%=      5-min Rain = 0
KMD1 190630Z 03002KT 20/16 A2991 RMK A01 T02040156  RH  074%=      5-min Rain = 0
KMD1 190631Z 03002KT 21/15 A2991 RMK A01 T02070152  RH  071%=      5-min Rain = 0
KMD1 190632Z 02003KT 21/15 A2991 RMK A01 T02110149  RH  068%=      5-min Rain = 0
KMD1 190633Z 03003KT 22/15 A2991 RMK A01 T02150149  RH  066%=      5-min Rain = 0
KMD1 190634Z 03003KT 22/15 A2991 RMK A01 T02170151  RH  066%=      5-min Rain = 0
KMD1 190635Z 02003KT 22/15 A2991 RMK A01 T02170154  RH  067%=      5-min Rain = 0
KMD1 190636Z 03003KT 22/16 A2991 RMK A01 T02160156  RH  069%=      5-min Rain = 0
KMD1 190637Z 03003KT 21/16 A2991 RMK A01 T02140157  RH  070%=      5-min Rain = 0
KMD1 190638Z 03004KT 21/16 A2991 RMK A01 T02120158  RH  071%=      5-min Rain = 0
KMD1 190639Z 03004KT 21/16 A2992 RMK A01 T02110157  RH  071%=      5-min Rain = 0
KMD1 190640Z 03004KT 21/15 A2992 RMK A01 T02100152  RH  069%=      5-min Rain = 0
KMD1 190641Z 02004KT 21/15 A2992 RMK A01 T02110154  RH  070%=      5-min Rain = 0
KMD1 190642Z 01004KT 21/16 A2992 RMK A01 T02110157  RH  071%=      5-min Rain = 0
KMD1 190643Z 02004KT 21/16 A2992 RMK A01 T02100157  RH  072%=      5-min Rain = 0
KMD1 190644Z 03004KT 21/16 A2992 RMK A01 T02090158  RH  072%=      5-min Rain = 0
KMD1 190645Z 01003KT 21/16 A2992 RMK A01 T02080156  RH  072%=      5-min Rain = 0
KMD1 190646Z 01004KT 21/16 A2992 RMK A01 T02070161  RH  075%=      5-min Rain = 0
KMD1 190647Z 02006KT 21/16 A2992 RMK A01 T02060159  RH  074%=      5-min Rain = 0
KMD1 190648Z 02006KT 21/16 A2992 RMK A01 T02050155  RH  073%=      5-min Rain = 0
KMD1 190649Z 36003KT 21/16 A2992 RMK A01 T02060155  RH  072%=      5-min Rain = 0
KMD1 190650Z 24000KT 21/16 A2992 RMK A01 T02060159  RH  074%=      5-min Rain = 0
KMD1 190651Z 36001KT 21/16 A2992 RMK A01 T02050157  RH  074%=      5-min Rain = 0
KMD1 190652Z 03002KT 21/16 A2992 RMK A01 T02050155  RH  073%=      5-min Rain = 0
KMD1 190653Z 02001KT 21/16 A2992 RMK A01 T02050156  RH  074%=      5-min Rain = 0
KMD1 190654Z 01002KT 21/16 A2992 RMK A01 T02050155  RH  073%=      5-min Rain = 0
KMD1 190655Z 03003KT 21/16 A2992 RMK A01 T02050156  RH  074%=      5-min Rain = 0
KMD1 190656Z 02005KT 21/15 A2992 RMK A01 T02050153  RH  072%=      5-min Rain = 0
KMD1 190657Z 02006KT 21/15 A2992 RMK A01 T02070154  RH  071%=      5-min Rain = 0
KMD1 190658Z 03006KT 21/15 A2992 RMK A01 T02090154  RH  071%=      5-min Rain = 0
KMD1 190659Z 02005KT 21/15 A2992 RMK A01 T02110154  RH  070%=      5-min Rain = 0
KMD1 190700Z 00005KT 21/16 A2992 RMK A01 T02120157  RH  071%=      5-min Rain = 0
KMD1 190701Z 00004KT 21/15 A2992 RMK A01 T02120150  RH  068%=      5-min Rain = 0
KMD1 190702Z 00004KT 22/15 A2992 RMK A01 T02160148  RH  065%=      5-min Rain = 0
KMD1 190703Z 00005KT 22/15 A2992 RMK A01 T02180151  RH  066%=      5-min Rain = 0
KMD1 190704Z 00006KT 22/15 A2992 RMK A01 T02170153  RH  067%=      5-min Rain = 0
KMD1 190705Z 36006KT 22/15 A2992 RMK A01 T02150153  RH  067%=      5-min Rain = 0
KMD1 190706Z 34004KT 21/15 A2992 RMK A01 T02140152  RH  068%=      5-min Rain = 0
KMD1 190707Z 36003KT 21/15 A2992 RMK A01 T02140153  RH  068%=      5-min Rain = 0
KMD1 190708Z 36003KT 21/16 A2992 RMK A01 T02130155  RH  069%=      5-min Rain = 0
KMD1 190709Z 35003KT 21/16 A2992 RMK A01 T02130155  RH  070%=      5-min Rain = 0
KMD1 190710Z 01002KT 21/16 A2992 RMK A01 T02120157  RH  071%=      5-min Rain = 0
KMD1 190711Z 01003KT 21/16 A2992 RMK A01 T02110159  RH  072%=      5-min Rain = 0
KMD1 190712Z 02002KT 21/16 A2992 RMK A01 T02090160  RH  074%=      5-min Rain = 0
KMD1 190713Z 07002KT 21/16 A2992 RMK A01 T02050162  RH  077%=      5-min Rain = 0
KMD1 190714Z 07003KT 20/16 A2992 RMK A01 T02000163  RH  079%=      5-min Rain = 0
KMD1 190715Z 02004KT 20/16 A2992 RMK A01 T01970159  RH  078%=      5-min Rain = 0
KMD1 190716Z 00004KT 20/16 A2992 RMK A01 T01980156  RH  077%=      5-min Rain = 0
KMD1 190717Z 35004KT 20/16 A2992 RMK A01 T02010156  RH  075%=      5-min Rain = 0
KMD1 190718Z 35004KT 20/16 A2992 RMK A01 T02020157  RH  075%=      5-min Rain = 0
KMD1 190719Z 35004KT 20/16 A2992 RMK A01 T02030158  RH  075%=      5-min Rain = 0
KMD1 190720Z 34003KT 20/16 A2992 RMK A01 T02030156  RH  074%=      5-min Rain = 0
KMD1 190721Z 34003KT 20/16 A2992 RMK A01 T02040155  RH  073%=      5-min Rain = 0
KMD1 190722Z 34003KT 21/16 A2992 RMK A01 T02050155  RH  073%=      5-min Rain = 0
KMD1 190723Z 34002KT 21/15 A2992 RMK A01 T02060153  RH  072%=      5-min Rain = 0
KMD1 190724Z 34001KT 21/15 A2992 RMK A01 T02070153  RH  071%=      5-min Rain = 0
KMD1 190725Z 33001KT 21/15 A2992 RMK A01 T02070152  RH  071%=      5-min Rain = 0
KMD1 190726Z 34001KT 21/16 A2992 RMK A01 T02070156  RH  073%=      5-min Rain = 0
KMD1 190727Z 00000KT 21/16 A2992 RMK A01 T02060164  RH  077%=      5-min Rain = 0
KMD1 190728Z 05000KT 20/16 A2992 RMK A01 T02030160  RH  076%=      5-min Rain = 0
KMD1 190729Z 05001KT 20/16 A2992 RMK A01 T02010157  RH  076%=      5-min Rain = 0
KMD1 190730Z 03003KT 20/16 A2992 RMK A01 T02010157  RH  076%=      5-min Rain = 0
KMD1 190731Z 02004KT 20/16 A2992 RMK A01 T02010158  RH  076%=      5-min Rain = 0
KMD1 190732Z 01004KT 20/16 A2992 RMK A01 T02010155  RH  075%=      5-min Rain = 0
KMD1 190733Z 00004KT 20/16 A2992 RMK A01 T02020157  RH  075%=      5-min Rain = 0
KMD1 190734Z 36004KT 20/16 A2992 RMK A01 T02020158  RH  076%=      5-min Rain = 0
KMD1 190735Z 36004KT 20/16 A2992 RMK A01 T02020158  RH  076%=      5-min Rain = 0
KMD1 190736Z 00004KT 20/16 A2992 RMK A01 T02010157  RH  076%=      5-min Rain = 0
KMD1 190737Z 36004KT 20/16 A2992 RMK A01 T02020156  RH  075%=      5-min Rain = 0
KMD1 190738Z 36004KT 20/16 A2992 RMK A01 T02010156  RH  075%=      5-min Rain = 0
KMD1 190739Z 36004KT 20/16 A2992 RMK A01 T02020157  RH  075%=      5-min Rain = 0
KMD1 190740Z 35004KT 20/16 A2992 RMK A01 T02020159  RH  076%=      5-min Rain = 0
KMD1 190741Z 34004KT 20/16 A2992 RMK A01 T02010159  RH  077%=      5-min Rain = 0
KMD1 190742Z 32003KT 20/16 A2992 RMK A01 T02000158  RH  077%=      5-min Rain = 0
KMD1 190743Z 28002KT 20/16 A2992 RMK A01 T01990161  RH  078%=      5-min Rain = 0
KMD1 190744Z 27002KT 20/16 A2992 RMK A01 T01980159  RH  078%=      5-min Rain = 0
KMD1 190745Z 29001KT 20/16 A2992 RMK A01 T01980157  RH  077%=      5-min Rain = 0
KMD1 190746Z 33001KT 20/16 A2992 RMK A01 T01990158  RH  077%=      5-min Rain = 0
KMD1 190747Z 35000KT 20/16 A2992 RMK A01 T02000159  RH  078%=      5-min Rain = 0
KMD1 190748Z 17000KT 20/16 A2992 RMK A01 T02000159  RH  077%=      5-min Rain = 0
KMD1 190749Z 18001KT 20/17 A2992 RMK A01 T02000166  RH  081%=      5-min Rain = 0
KMD1 190750Z 19002KT 20/17 A2992 RMK A01 T01970168  RH  083%=      5-min Rain = 0
KMD1 190751Z 18001KT 20/17 A2992 RMK A01 T01960168  RH  084%=      5-min Rain = 0
KMD1 190752Z 15001KT 20/17 A2992 RMK A01 T01950165  RH  083%=      5-min Rain = 0
KMD1 190753Z 14001KT 20/16 A2992 RMK A01 T01950163  RH  082%=      5-min Rain = 0
KMD1 190754Z 16001KT 20/17 A2992 RMK A01 T01950165  RH  083%=      5-min Rain = 0
KMD1 190755Z 17002KT 19/17 A2992 RMK A01 T01940165  RH  084%=      5-min Rain = 0
KMD1 190756Z 20002KT 19/17 A2992 RMK A01 T01930166  RH  084%=      5-min Rain = 0
KMD1 190757Z 21001KT 19/17 A2992 RMK A01 T01930166  RH  085%=      5-min Rain = 0
KMD1 190758Z 00000KT 19/17 A2992 RMK A01 T01920166  RH  085%=      5-min Rain = 0
KMD1 190759Z 00000KT 19/17 A2992 RMK A01 T01920166  RH  085%=      5-min Rain = 0
KMD1 190800Z 35001KT 19/17 A2992 RMK A01 T01920166  RH  085%=      5-min Rain = 0
KMD1 190801Z 33002KT 19/17 A2992 RMK A01 T01910167  RH  086%=      5-min Rain = 0
KMD1 190802Z 32002KT 19/17 A2992 RMK A01 T01910168  RH  086%=      5-min Rain = 0
KMD1 190803Z 32002KT 19/17 A2992 RMK A01 T01900168  RH  087%=      5-min Rain = 0
KMD1 190804Z 33003KT 19/17 A2992 RMK A01 T01900168  RH  087%=      5-min Rain = 0
KMD1 190805Z 33002KT 19/17 A2992 RMK A01 T01910167  RH  086%=      5-min Rain = 0
KMD1 190806Z 34002KT 19/17 A2992 RMK A01 T01910165  RH  085%=      5-min Rain = 0
KMD1 190807Z 35003KT 19/16 A2992 RMK A01 T01920163  RH  083%=      5-min Rain = 0
KMD1 190808Z 35001KT 19/16 A2993 RMK A01 T01930162  RH  082%=      5-min Rain = 0
KMD1 190809Z 22000KT 19/17 A2993 RMK A01 T01940165  RH  083%=      5-min Rain = 0
KMD1 190810Z 24002KT 19/17 A2993 RMK A01 T01940165  RH  084%=      5-min Rain = 0
KMD1 190811Z 28002KT 19/16 A2993 RMK A01 T01940163  RH  082%=      5-min Rain = 0
KMD1 190812Z 31003KT 20/16 A2993 RMK A01 T01950159  RH  079%=      5-min Rain = 0
KMD1 190813Z 34003KT 20/16 A2993 RMK A01 T01970157  RH  078%=      5-min Rain = 0
KMD1 190814Z 35003KT 20/15 A2993 RMK A01 T01990154  RH  075%=      5-min Rain = 0
KMD1 190815Z 01003KT 20/15 A2993 RMK A01 T02030153  RH  073%=      5-min Rain = 0
KMD1 190816Z 00002KT 21/16 A2993 RMK A01 T02050155  RH  073%=      5-min Rain = 0
KMD1 190817Z 01001KT 21/16 A2993 RMK A01 T02060158  RH  074%=      5-min Rain = 0
KMD1 190818Z 10000KT 21/16 A2993 RMK A01 T02050161  RH  076%=      5-min Rain = 0
KMD1 190819Z 16002KT 20/17 A2993 RMK A01 T02030165  RH  079%=      5-min Rain = 0
KMD1 190820Z 16002KT 20/17 A2993 RMK A01 T02000167  RH  081%=      5-min Rain = 0
KMD1 190821Z 17001KT 20/17 A2993 RMK A01 T01970167  RH  083%=      5-min Rain = 0
KMD1 190822Z 18001KT 20/17 A2993 RMK A01 T01950165  RH  083%=      5-min Rain = 0
KMD1 190823Z 00000KT 19/16 A2993 RMK A01 T01940162  RH  081%=      5-min Rain = 0
KMD1 190824Z 01000KT 19/16 A2993 RMK A01 T01940161  RH  081%=      5-min Rain = 0
KMD1 190825Z 02001KT 19/16 A2993 RMK A01 T01940162  RH  082%=      5-min Rain = 0
KMD1 190826Z 02001KT 19/16 A2993 RMK A01 T01940162  RH  081%=      5-min Rain = 0
KMD1 190827Z 02001KT 20/16 A2993 RMK A01 T01950163  RH  082%=      5-min Rain = 0
KMD1 190828Z 02002KT 20/16 A2993 RMK A01 T01950163  RH  082%=      5-min Rain = 0
KMD1 190829Z 00003KT 20/16 A2993 RMK A01 T01950162  RH  081%=      5-min Rain = 0
KMD1 190830Z 36003KT 20/16 A2993 RMK A01 T01960162  RH  081%=      5-min Rain = 0
KMD1 190831Z 35004KT 20/16 A2993 RMK A01 T01960163  RH  082%=      5-min Rain = 0
KMD1 190832Z 35005KT 20/16 A2993 RMK A01 T01950164  RH  082%=      5-min Rain = 0
KMD1 190833Z 36004KT 20/17 A2993 RMK A01 T01950165  RH  083%=      5-min Rain = 0
KMD1 190834Z 00002KT 19/17 A2993 RMK A01 T01940165  RH  084%=      5-min Rain = 0
KMD1 190835Z 13000KT 19/17 A2993 RMK A01 T01930166  RH  084%=      5-min Rain = 0
KMD1 190836Z 13001KT 19/16 A2993 RMK A01 T01920164  RH  084%=      5-min Rain = 0
KMD1 190837Z 00000KT 19/16 A2993 RMK A01 T01930163  RH  083%=      5-min Rain = 0
KMD1 190838Z 00000KT 19/16 A2993 RMK A01 T01930162  RH  083%=      5-min Rain = 0
KMD1 190839Z 04000KT 19/16 A2993 RMK A01 T01920162  RH  082%=      5-min Rain = 0
KMD1 190840Z 09001KT 19/16 A2993 RMK A01 T01930162  RH  082%=      5-min Rain = 0
KMD1 190841Z 10001KT 19/16 A2993 RMK A01 T01930160  RH  081%=      5-min Rain = 0
KMD1 190842Z 09001KT 19/16 A2993 RMK A01 T01940160  RH  081%=      5-min Rain = 0
KMD1 190843Z 11002KT 20/16 A2993 RMK A01 T01950160  RH  080%=      5-min Rain = 0
KMD1 190844Z 13002KT 20/16 A2992 RMK A01 T01960160  RH  080%=      5-min Rain = 0
KMD1 190845Z 13000KT 20/16 A2992 RMK A01 T01960160  RH  080%=      5-min Rain = 0
KMD1 190846Z 11000KT 20/16 A2992 RMK A01 T01960160  RH  080%=      5-min Rain = 0
KMD1 190847Z 11001KT 20/16 A2992 RMK A01 T01960161  RH  080%=      5-min Rain = 0
KMD1 190848Z 14000KT 20/16 A2992 RMK A01 T01960162  RH  081%=      5-min Rain = 0
KMD1 190849Z 14001KT 20/16 A2992 RMK A01 T01960162  RH  081%=      5-min Rain = 0
KMD1 190850Z 14000KT 20/17 A2992 RMK A01 T01960165  RH  082%=      5-min Rain = 0
KMD1 190851Z 00000KT 20/17 A2992 RMK A01 T01960166  RH  083%=      5-min Rain = 0
KMD1 190852Z 00000KT 20/17 A2992 RMK A01 T01950165  RH  083%=      5-min Rain = 0
KMD1 190853Z 14001KT 20/17 A2992 RMK A01 T01950165  RH  083%=      5-min Rain = 0
KMD1 190854Z 11001KT 20/16 A2992 RMK A01 T01950164  RH  083%=      5-min Rain = 0
KMD1 190855Z 09001KT 19/16 A2992 RMK A01 T01940164  RH  083%=      5-min Rain = 0
KMD1 190856Z 08001KT 20/17 A2992 RMK A01 T01950166  RH  083%=      5-min Rain = 0
KMD1 190857Z 09003KT 19/17 A2992 RMK A01 T01940168  RH  085%=      5-min Rain = 0
KMD1 190858Z 08002KT 19/17 A2992 RMK A01 T01920168  RH  086%=      5-min Rain = 0
KMD1 190859Z 06002KT 19/17 A2992 RMK A01 T01910168  RH  087%=      5-min Rain = 0
KMD1 190900Z 05002KT 19/17 A2992 RMK A01 T01900168  RH  087%=      5-min Rain = 0
KMD1 190901Z 06001KT 19/17 A2992 RMK A01 T01890167  RH  087%=      5-min Rain = 0
KMD1 190902Z 09000KT 19/17 A2992 RMK A01 T01890168  RH  088%=      5-min Rain = 0
KMD1 190903Z 00000KT 19/17 A2992 RMK A01 T01890168  RH  088%=      5-min Rain = 0
KMD1 190904Z 29001KT 19/17 A2992 RMK A01 T01890169  RH  088%=      5-min Rain = 0
KMD1 190905Z 33002KT 19/17 A2991 RMK A01 T01890169  RH  088%=      5-min Rain = 0
KMD1 190906Z 35001KT 19/17 A2991 RMK A01 T01890169  RH  088%=      5-min Rain = 0
KMD1 190907Z 01001KT 19/17 A2991 RMK A01 T01900169  RH  088%=      5-min Rain = 0
KMD1 190908Z 02001KT 19/17 A2991 RMK A01 T01900169  RH  087%=      5-min Rain = 0
KMD1 190909Z 05000KT 19/17 A2992 RMK A01 T01910169  RH  087%=      5-min Rain = 0
KMD1 190910Z 00000KT 19/17 A2992 RMK A01 T01910170  RH  088%=      5-min Rain = 0
KMD1 190911Z 27000KT 19/17 A2991 RMK A01 T01900169  RH  088%=      5-min Rain = 0
KMD1 190912Z 28001KT 19/17 A2991 RMK A01 T01900170  RH  088%=      5-min Rain = 0
KMD1 190913Z 25002KT 19/17 A2991 RMK A01 T01900170  RH  088%=      5-min Rain = 0
KMD1 190914Z 29002KT 19/17 A2991 RMK A01 T01900169  RH  088%=      5-min Rain = 0
KMD1 190915Z 29001KT 19/17 A2991 RMK A01 T01900169  RH  088%=      5-min Rain = 0
KMD1 190916Z 33000KT 19/17 A2991 RMK A01 T01900169  RH  087%=      5-min Rain = 0
KMD1 190917Z 31002KT 19/17 A2991 RMK A01 T01900169  RH  087%=      5-min Rain = 0
KMD1 190918Z 22003KT 19/17 A2991 RMK A01 T01900170  RH  088%=      5-min Rain = 0
KMD1 190919Z 23004KT 19/17 A2991 RMK A01 T01900170  RH  088%=      5-min Rain = 0
KMD1 190920Z 22004KT 19/17 A2991 RMK A01 T01900170  RH  088%=      5-min Rain = 0
KMD1 190921Z 24002KT 19/17 A2991 RMK A01 T01900169  RH  088%=      5-min Rain = 0
KMD1 190922Z 27001KT 19/17 A2991 RMK A01 T01890169  RH  088%=      5-min Rain = 0
KMD1 190923Z 27001KT 19/17 A2991 RMK A01 T01900168  RH  088%=      5-min Rain = 0
KMD1 190924Z 31001KT 19/17 A2991 RMK A01 T01900168  RH  087%=      5-min Rain = 0
KMD1 190925Z 32003KT 19/17 A2991 RMK A01 T01900168  RH  087%=      5-min Rain = 0
KMD1 190926Z 34004KT 19/17 A2991 RMK A01 T01900170  RH  088%=      5-min Rain = 0
KMD1 190927Z 34003KT 19/17 A2991 RMK A01 T01900171  RH  089%=      5-min Rain = 0
KMD1 190928Z 00003KT 19/17 A2991 RMK A01 T01900171  RH  089%=      5-min Rain = 0
KMD1 190929Z 02005KT 19/17 A2991 RMK A01 T01900172  RH  089%=      5-min Rain = 0
KMD1 190930Z 02004KT 19/17 A2991 RMK A01 T01900172  RH  089%=      5-min Rain = 0
KMD1 190931Z 03004KT 19/17 A2991 RMK A01 T01910172  RH  089%=      5-min Rain = 0
KMD1 190932Z 01004KT 19/17 A2991 RMK A01 T01910171  RH  088%=      5-min Rain = 0
KMD1 190933Z 02003KT 19/17 A2991 RMK A01 T01920172  RH  088%=      5-min Rain = 0
KMD1 190934Z 01003KT 19/17 A2991 RMK A01 T01930172  RH  088%=      5-min Rain = 0
KMD1 190935Z 00004KT 19/17 A2991 RMK A01 T01930172  RH  087%=      5-min Rain = 0
KMD1 190936Z 36004KT 19/17 A2991 RMK A01 T01930172  RH  087%=      5-min Rain = 0
KMD1 190937Z 35005KT 19/17 A2991 RMK A01 T01940170  RH  086%=      5-min Rain = 0
KMD1 190938Z 35005KT 19/17 A2991 RMK A01 T01940169  RH  086%=      5-min Rain = 0
KMD1 190939Z 36004KT 20/17 A2991 RMK A01 T01950169  RH  085%=      5-min Rain = 0
KMD1 190940Z 35002KT 20/17 A2991 RMK A01 T01950169  RH  085%=      5-min Rain = 0
KMD1 190941Z 35001KT 20/17 A2991 RMK A01 T01960169  RH  085%=      5-min Rain = 0
KMD1 190942Z 23000KT 20/17 A2991 RMK A01 T01960170  RH  085%=      5-min Rain = 0
KMD1 190943Z 23000KT 20/17 A2991 RMK A01 T01950171  RH  086%=      5-min Rain = 0
KMD1 190944Z 18001KT 20/17 A2991 RMK A01 T01950172  RH  086%=      5-min Rain = 0
KMD1 190945Z 16002KT 19/17 A2991 RMK A01 T01940172  RH  087%=      5-min Rain = 0
KMD1 190946Z 13001KT 19/17 A2991 RMK A01 T01930173  RH  088%=      5-min Rain = 0
KMD1 190947Z 14002KT 19/17 A2991 RMK A01 T01920173  RH  089%=      5-min Rain = 0
KMD1 190948Z 15002KT 19/17 A2991 RMK A01 T01920174  RH  089%=      5-min Rain = 0
KMD1 190949Z 17003KT 19/17 A2991 RMK A01 T01910174  RH  090%=      5-min Rain = 0
KMD1 190950Z 18003KT 19/18 A2991 RMK A01 T01900175  RH  091%=      5-min Rain = 0
KMD1 190951Z 16003KT 19/17 A2991 RMK A01 T01890174  RH  091%=      5-min Rain = 0
KMD1 190952Z 15002KT 19/17 A2991 RMK A01 T01890173  RH  091%=      5-min Rain = 0
KMD1 190953Z 14002KT 19/17 A2991 RMK A01 T01890173  RH  090%=      5-min Rain = 0
KMD1 190954Z 13000KT 19/17 A2991 RMK A01 T01890173  RH  090%=      5-min Rain = 0
KMD1 190955Z 19000KT 19/17 A2991 RMK A01 T01890173  RH  090%=      5-min Rain = 0
KMD1 190956Z 20003KT 19/17 A2991 RMK A01 T01890173  RH  090%=      5-min Rain = 0
KMD1 190957Z 24003KT 19/17 A2991 RMK A01 T01890174  RH  091%=      5-min Rain = 0
KMD1 190958Z 20001KT 19/17 A2991 RMK A01 T01890174  RH  091%=      5-min Rain = 0
KMD1 190959Z 15001KT 19/17 A2991 RMK A01 T01890174  RH  091%=      5-min Rain = 0
KMD1 191000Z 13001KT 19/17 A2991 RMK A01 T01890174  RH  091%=      5-min Rain = 0
KMD1 191001Z 11000KT 19/17 A2991 RMK A01 T01890173  RH  091%=      5-min Rain = 0
KMD1 191002Z 23000KT 19/17 A2991 RMK A01 T01890174  RH  091%=      5-min Rain = 0
KMD1 191003Z 25002KT 19/17 A2991 RMK A01 T01890174  RH  091%=      5-min Rain = 0
KMD1 191004Z 26002KT 19/17 A2991 RMK A01 T01880174  RH  092%=      5-min Rain = 0
KMD1 191005Z 29001KT 19/17 A2991 RMK A01 T01880174  RH  092%=      5-min Rain = 0
KMD1 191006Z 33000KT 19/18 A2991 RMK A01 T01880175  RH  092%=      5-min Rain = 0
KMD1 191007Z 32001KT 19/18 A2991 RMK A01 T01880175  RH  092%=      5-min Rain = 0
KMD1 191008Z 31002KT 19/18 A2991 RMK A01 T01870175  RH  092%=      5-min Rain = 0
KMD1 191009Z 30001KT 19/18 A2991 RMK A01 T01870175  RH  093%=      5-min Rain = 0
KMD1 191010Z 30001KT 19/18 A2991 RMK A01 T01870176  RH  093%=      5-min Rain = 0
KMD1 191011Z 30001KT 19/18 A2991 RMK A01 T01870175  RH  093%=      5-min Rain = 0
KMD1 191012Z 32002KT 19/18 A2991 RMK A01 T01870175  RH  093%=      5-min Rain = 0
KMD1 191013Z 34002KT 19/18 A2991 RMK A01 T01870175  RH  093%=      5-min Rain = 0
KMD1 191014Z 33001KT 19/18 A2991 RMK A01 T01880175  RH  092%=      5-min Rain = 0
KMD1 191015Z 35002KT 19/18 A2991 RMK A01 T01880175  RH  092%=      5-min Rain = 0
KMD1 191016Z 31000KT 19/17 A2991 RMK A01 T01880174  RH  092%=      5-min Rain = 0
KMD1 191017Z 31000KT 19/17 A299 RMK A01 T01880174  RH  092%=      5-min Rain = 0
KMD1 191018Z 22000KT 19/18 A299 RMK A01 T01890175  RH  092%=      5-min Rain = 0
KMD1 191019Z 22001KT 19/18 A299 RMK A01 T01890176  RH  092%=      5-min Rain = 0
KMD1 191020Z 20001KT 19/18 A299 RMK A01 T01890175  RH  092%=      5-min Rain = 0
KMD1 191021Z 19002KT 19/18 A299 RMK A01 T01890175  RH  091%=      5-min Rain = 0
KMD1 191022Z 18003KT 19/17 A299 RMK A01 T01890174  RH  091%=      5-min Rain = 0
KMD1 191023Z 18003KT 19/17 A299 RMK A01 T01890174  RH  091%=      5-min Rain = 0
KMD1 191024Z 18003KT 19/18 A299 RMK A01 T01890175  RH  092%=      5-min Rain = 0
KMD1 191025Z 18003KT 19/18 A299 RMK A01 T01890175  RH  091%=      5-min Rain = 0
KMD1 191026Z 19003KT 19/17 A299 RMK A01 T01880174  RH  091%=      5-min Rain = 0
KMD1 191027Z 19003KT 19/17 A299 RMK A01 T01880174  RH  091%=      5-min Rain = 0
KMD1 191028Z 19003KT 19/17 A299 RMK A01 T01870173  RH  092%=      5-min Rain = 0
KMD1 191029Z 20002KT 19/17 A299 RMK A01 T01870173  RH  091%=      5-min Rain = 0
KMD1 191030Z 21001KT 19/17 A299 RMK A01 T01860173  RH  092%=      5-min Rain = 0
KMD1 191031Z 22002KT 19/17 A299 RMK A01 T01860173  RH  092%=      5-min Rain = 0
KMD1 191032Z 23002KT 19/17 A299 RMK A01 T01860173  RH  092%=      5-min Rain = 0
KMD1 191033Z 24001KT 19/17 A299 RMK A01 T01860174  RH  092%=      5-min Rain = 0
KMD1 191034Z 26001KT 19/18 A299 RMK A01 T01870175  RH  093%=      5-min Rain = 0
KMD1 191035Z 32000KT 19/18 A299 RMK A01 T01870175  RH  093%=      5-min Rain = 0
KMD1 191036Z 31001KT 19/18 A299 RMK A01 T01870176  RH  093%=      5-min Rain = 0
KMD1 191037Z 32001KT 19/18 A299 RMK A01 T01870176  RH  093%=      5-min Rain = 0
KMD1 191038Z 33001KT 19/18 A299 RMK A01 T01870176  RH  093%=      5-min Rain = 0
KMD1 191039Z 33001KT 19/18 A299 RMK A01 T01860175  RH  093%=      5-min Rain = 0
KMD1 191040Z 32001KT 19/18 A299 RMK A01 T01870175  RH  093%=      5-min Rain = 0
KMD1 191041Z 34002KT 19/17 A299 RMK A01 T01870174  RH  092%=      5-min Rain = 0
KMD1 191042Z 34001KT 19/17 A299 RMK A01 T01870173  RH  091%=      5-min Rain = 0
KMD1 191043Z 35001KT 19/17 A299 RMK A01 T01880173  RH  091%=      5-min Rain = 0
KMD1 191044Z 01002KT 19/17 A299 RMK A01 T01890172  RH  090%=      5-min Rain = 0
KMD1 191045Z 01001KT 19/17 A299 RMK A01 T01890173  RH  090%=      5-min Rain = 0
KMD1 191046Z 36000KT 19/17 A299 RMK A01 T01900174  RH  090%=      5-min Rain = 0
KMD1 191047Z 02000KT 19/17 A2989 RMK A01 T01900174  RH  091%=      5-min Rain = 0
KMD1 191048Z 00001KT 19/18 A2989 RMK A01 T01900175  RH  091%=      5-min Rain = 0
KMD1 191049Z 35001KT 19/18 A2989 RMK A01 T01900175  RH  091%=      5-min Rain = 0
KMD1 191050Z 01001KT 19/18 A2989 RMK A01 T01900176  RH  092%=      5-min Rain = 0
KMD1 191051Z 00002KT 19/18 A299 RMK A01 T01900176  RH  092%=      5-min Rain = 0
KMD1 191052Z 00002KT 19/18 A299 RMK A01 T01900177  RH  092%=      5-min Rain = 0
KMD1 191053Z 36002KT 19/18 A299 RMK A01 T01900177  RH  092%=      5-min Rain = 0
KMD1 191054Z 36003KT 19/18 A299 RMK A01 T01890177  RH  092%=      5-min Rain = 0
KMD1 191055Z 36003KT 19/18 A299 RMK A01 T01890177  RH  093%=      5-min Rain = 0
KMD1 191056Z 36003KT 19/18 A299 RMK A01 T01880177  RH  093%=      5-min Rain = 0
KMD1 191057Z 36002KT 19/18 A299 RMK A01 T01880177  RH  093%=      5-min Rain = 0
KMD1 191058Z 35002KT 19/18 A299 RMK A01 T01880177  RH  093%=      5-min Rain = 0
KMD1 191059Z 35002KT 19/18 A299 RMK A01 T01880177  RH  093%=      5-min Rain = 0
KMD1 191100Z 34002KT 19/18 A299 RMK A01 T01880177  RH  093%=      5-min Rain = 0
KMD1 191101Z 32001KT 19/18 A299 RMK A01 T01880177  RH  093%=      5-min Rain = 0
KMD1 191102Z 33001KT 19/18 A299 RMK A01 T01880177  RH  093%=      5-min Rain = 0
KMD1 191103Z 34000KT 19/18 A299 RMK A01 T01880177  RH  093%=      5-min Rain = 0
KMD1 191104Z 00000KT 19/18 A299 RMK A01 T01880176  RH  093%=      5-min Rain = 0
KMD1 191105Z 00000KT 19/18 A299 RMK A01 T01880176  RH  093%=      5-min Rain = 0
KMD1 191106Z 23000KT 19/18 A299 RMK A01 T01880176  RH  093%=      5-min Rain = 0
KMD1 191107Z 22001KT 19/18 A299 RMK A01 T01880176  RH  093%=      5-min Rain = 0
KMD1 191108Z 21002KT 19/18 A299 RMK A01 T01880177  RH  093%=      5-min Rain = 0
KMD1 191109Z 19002KT 19/18 A299 RMK A01 T01880177  RH  093%=      5-min Rain = 0
KMD1 191110Z 20002KT 19/18 A2989 RMK A01 T01880177  RH  093%=      5-min Rain = 0
KMD1 191111Z 20002KT 19/18 A299 RMK A01 T01880177  RH  093%=      5-min Rain = 0
KMD1 191112Z 22002KT 19/18 A299 RMK A01 T01880177  RH  093%=      5-min Rain = 0
KMD1 191113Z 21003KT 19/18 A299 RMK A01 T01880177  RH  094%=      5-min Rain = 0
KMD1 191114Z 21003KT 19/18 A299 RMK A01 T01870177  RH  094%=      5-min Rain = 0
KMD1 191115Z 22002KT 19/18 A2989 RMK A01 T01870176  RH  093%=      5-min Rain = 0
KMD1 191116Z 23002KT 19/18 A299 RMK A01 T01860175  RH  093%=      5-min Rain = 0
KMD1 191117Z 23002KT 19/17 A299 RMK A01 T01850174  RH  093%=      5-min Rain = 0
KMD1 191118Z 23001KT 19/17 A299 RMK A01 T01850174  RH  094%=      5-min Rain = 0
KMD1 191119Z 25001KT 19/18 A299 RMK A01 T01850175  RH  094%=      5-min Rain = 0
KMD1 191120Z 27001KT 18/18 A299 RMK A01 T01840175  RH  094%=      5-min Rain = 0
KMD1 191121Z 30001KT 18/18 A299 RMK A01 T01840175  RH  094%=      5-min Rain = 0
KMD1 191122Z 29001KT 18/18 A299 RMK A01 T01840175  RH  094%=      5-min Rain = 0
KMD1 191123Z 29001KT 18/18 A299 RMK A01 T01840176  RH  095%=      5-min Rain = 0
KMD1 191124Z 30000KT 19/18 A299 RMK A01 T01850176  RH  095%=      5-min Rain = 0
KMD1 191125Z 30001KT 18/18 A299 RMK A01 T01840176  RH  095%=      5-min Rain = 0
KMD1 191126Z 30001KT 18/18 A299 RMK A01 T01840176  RH  095%=      5-min Rain = 0
KMD1 191127Z 27001KT 18/18 A299 RMK A01 T01840177  RH  095%=      5-min Rain = 0
KMD1 191128Z 30001KT 18/18 A299 RMK A01 T01840176  RH  095%=      5-min Rain = 0
KMD1 191129Z 29001KT 18/18 A299 RMK A01 T01840177  RH  095%=      5-min Rain = 0
KMD1 191130Z 29001KT 18/18 A299 RMK A01 T01840177  RH  095%=      5-min Rain = 0
KMD1 191131Z 29001KT 18/18 A299 RMK A01 T01840177  RH  095%=      5-min Rain = 0
KMD1 191132Z 29001KT 18/18 A299 RMK A01 T01840177  RH  095%=      5-min Rain = 0
KMD1 191133Z 29002KT 18/18 A299 RMK A01 T01840177  RH  095%=      5-min Rain = 0
KMD1 191134Z 30002KT 18/18 A299 RMK A01 T01840176  RH  095%=      5-min Rain = 0
KMD1 191135Z 29002KT 18/18 A299 RMK A01 T01840176  RH  095%=      5-min Rain = 0
KMD1 191136Z 29002KT 18/18 A299 RMK A01 T01840176  RH  095%=      5-min Rain = 0
KMD1 191137Z 30002KT 18/18 A299 RMK A01 T01840176  RH  095%=      5-min Rain = 0
KMD1 191138Z 28002KT 19/18 A299 RMK A01 T01850176  RH  095%=      5-min Rain = 0
KMD1 191139Z 30001KT 19/18 A299 RMK A01 T01850176  RH  095%=      5-min Rain = 0
KMD1 191140Z 29001KT 19/18 A299 RMK A01 T01850176  RH  095%=      5-min Rain = 0
KMD1 191141Z 24002KT 19/18 A299 RMK A01 T01850175  RH  094%=      5-min Rain = 0
KMD1 191142Z 25002KT 19/17 A299 RMK A01 T01850172  RH  092%=      5-min Rain = 0
KMD1 191143Z 27002KT 19/17 A299 RMK A01 T01860172  RH  092%=      5-min Rain = 0
KMD1 191144Z 24003KT 19/17 A299 RMK A01 T01870172  RH  091%=      5-min Rain = 0
KMD1 191145Z 23004KT 19/17 A299 RMK A01 T01870171  RH  090%=      5-min Rain = 0
KMD1 191146Z 25004KT 19/17 A299 RMK A01 T01880171  RH  090%=      5-min Rain = 0
KMD1 191147Z 25004KT 19/17 A299 RMK A01 T01880173  RH  091%=      5-min Rain = 0
KMD1 191148Z 25005KT 19/17 A299 RMK A01 T01880174  RH  091%=      5-min Rain = 0
KMD1 191149Z 24004KT 19/17 A299 RMK A01 T01880174  RH  092%=      5-min Rain = 0
KMD1 191150Z 24004KT 19/18 A299 RMK A01 T01870175  RH  092%=      5-min Rain = 0
KMD1 191151Z 24004KT 19/18 A299 RMK A01 T01870176  RH  093%=      5-min Rain = 0
KMD1 191152Z 25005KT 19/18 A299 RMK A01 T01870177  RH  094%=      5-min Rain = 0
KMD1 191153Z 24005KT 19/18 A299 RMK A01 T01860177  RH  094%=      5-min Rain = 0
KMD1 191154Z 23005KT 19/18 A299 RMK A01 T01860176  RH  094%=      5-min Rain = 0
KMD1 191155Z 24004KT 19/18 A299 RMK A01 T01860175  RH  094%=      5-min Rain = 0
KMD1 191156Z 23004KT 19/18 A299 RMK A01 T01860175  RH  093%=      5-min Rain = 0
KMD1 191157Z 23003KT 19/18 A299 RMK A01 T01860175  RH  093%=      5-min Rain = 0
KMD1 191158Z 24003KT 19/17 A299 RMK A01 T01870174  RH  093%=      5-min Rain = 0
KMD1 191159Z 24003KT 19/17 A299 RMK A01 T01870174  RH  092%=      5-min Rain = 0
KMD1 191200Z 23003KT 19/17 A299 RMK A01 T01870174  RH  092%=      5-min Rain = 0
KMD1 191201Z 24003KT 19/17 A299 RMK A01 T01870174  RH  092%=      5-min Rain = 0
KMD1 191202Z 23002KT 19/17 A299 RMK A01 T01870174  RH  092%=      5-min Rain = 0
KMD1 191203Z 24003KT 19/17 A299 RMK A01 T01870174  RH  092%=      5-min Rain = 0
KMD1 191204Z 23002KT 19/17 A299 RMK A01 T01880174  RH  092%=      5-min Rain = 0
KMD1 191205Z 24003KT 19/18 A299 RMK A01 T01880175  RH  092%=      5-min Rain = 0
KMD1 191206Z 24002KT 19/18 A299 RMK A01 T01880175  RH  092%=      5-min Rain = 0
KMD1 191207Z 24002KT 19/18 A299 RMK A01 T01880175  RH  092%=      5-min Rain = 0
KMD1 191208Z 23002KT 19/18 A299 RMK A01 T01890175  RH  092%=      5-min Rain = 0
KMD1 191209Z 23003KT 19/18 A299 RMK A01 T01890176  RH  092%=      5-min Rain = 0
KMD1 191210Z 23003KT 19/18 A299 RMK A01 T01900176  RH  092%=      5-min Rain = 0
KMD1 191211Z 23003KT 19/18 A299 RMK A01 T01900176  RH  092%=      5-min Rain = 0
KMD1 191212Z 23003KT 19/18 A299 RMK A01 T01910177  RH  092%=      5-min Rain = 0
KMD1 191213Z 24003KT 19/18 A299 RMK A01 T01910178  RH  092%=      5-min Rain = 0
KMD1 191214Z 24002KT 19/18 A2989 RMK A01 T01910178  RH  092%=      5-min Rain = 0
KMD1 191215Z 24003KT 19/18 A2989 RMK A01 T01910178  RH  092%=      5-min Rain = 0
KMD1 191216Z 24002KT 19/18 A2989 RMK A01 T01920177  RH  091%=      5-min Rain = 0
KMD1 191217Z 25002KT 19/18 A2989 RMK A01 T01920178  RH  092%=      5-min Rain = 0
KMD1 191218Z 24002KT 19/18 A2989 RMK A01 T01920178  RH  092%=      5-min Rain = 0
KMD1 191219Z 24002KT 19/18 A2989 RMK A01 T01920178  RH  092%=      5-min Rain = 0
KMD1 191220Z 23001KT 19/18 A299 RMK A01 T01930179  RH  091%=      5-min Rain = 0
KMD1 191221Z 21001KT 19/18 A299 RMK A01 T01930179  RH  091%=      5-min Rain = 0
KMD1 191222Z 22000KT 19/18 A299 RMK A01 T01940180  RH  092%=      5-min Rain = 0
KMD1 191223Z 00000KT 20/18 A299 RMK A01 T01950181  RH  092%=      5-min Rain = 0
KMD1 191224Z 00000KT 20/18 A299 RMK A01 T01960183  RH  092%=      5-min Rain = 0
KMD1 191225Z 00000KT 20/18 A299 RMK A01 T01980184  RH  092%=      5-min Rain = 0
KMD1 191226Z 00000KT 20/18 A299 RMK A01 T01990184  RH  091%=      5-min Rain = 0
KMD1 191227Z 00000KT 20/18 A299 RMK A01 T02000183  RH  090%=      5-min Rain = 0
KMD1 191228Z 29000KT 20/18 A299 RMK A01 T02010184  RH  090%=      5-min Rain = 0
KMD1 191229Z 30000KT 20/18 A299 RMK A01 T02010183  RH  089%=      5-min Rain = 0
KMD1 191230Z 00000KT 20/18 A299 RMK A01 T02020183  RH  089%=      5-min Rain = 0
KMD1 191231Z 31000KT 20/18 A299 RMK A01 T02020183  RH  089%=      5-min Rain = 0
KMD1 191232Z 31000KT 20/18 A299 RMK A01 T02020183  RH  088%=      5-min Rain = 0
KMD1 191233Z 32001KT 20/18 A299 RMK A01 T02020182  RH  088%=      5-min Rain = 0
KMD1 191234Z 32001KT 20/18 A299 RMK A01 T02020183  RH  089%=      5-min Rain = 0
KMD1 191235Z 27001KT 20/19 A299 RMK A01 T02030185  RH  090%=      5-min Rain = 0
KMD1 191236Z 28001KT 20/19 A299 RMK A01 T02030185  RH  089%=      5-min Rain = 0
KMD1 191237Z 26001KT 20/19 A299 RMK A01 T02040187  RH  090%=      5-min Rain = 0
KMD1 191238Z 26001KT 21/19 A299 RMK A01 T02050189  RH  090%=      5-min Rain = 0
KMD1 191239Z 25002KT 21/19 A299 RMK A01 T02060189  RH  090%=      5-min Rain = 0
KMD1 191240Z 23002KT 21/19 A299 RMK A01 T02060190  RH  090%=      5-min Rain = 0
KMD1 191241Z 24002KT 21/19 A299 RMK A01 T02070190  RH  090%=      5-min Rain = 0
KMD1 191242Z 23002KT 21/19 A299 RMK A01 T02080192  RH  090%=      5-min Rain = 0
KMD1 191243Z 23003KT 21/19 A299 RMK A01 T02090193  RH  091%=      5-min Rain = 0
KMD1 191244Z 22004KT 21/19 A299 RMK A01 T02100194  RH  091%=      5-min Rain = 0
KMD1 191245Z 22004KT 21/20 A299 RMK A01 T02110197  RH  092%=      5-min Rain = 0
KMD1 191246Z 22004KT 21/20 A299 RMK A01 T02140202  RH  093%=      5-min Rain = 0
KMD1 191247Z 22005KT 22/21 A299 RMK A01 T02160205  RH  093%=      5-min Rain = 0
KMD1 191248Z 22003KT 22/21 A299 RMK A01 T02180205  RH  092%=      5-min Rain = 0
KMD1 191249Z 22004KT 22/21 A299 RMK A01 T02190206  RH  092%=      5-min Rain = 0
KMD1 191250Z 23004KT 22/21 A299 RMK A01 T02210207  RH  092%=      5-min Rain = 0
KMD1 191251Z 22004KT 22/21 A299 RMK A01 T02220207  RH  092%=      5-min Rain = 0
KMD1 191252Z 22005KT 22/21 A299 RMK A01 T02230208  RH  091%=      5-min Rain = 0
KMD1 191253Z 22005KT 22/21 A299 RMK A01 T02240208  RH  091%=      5-min Rain = 0
KMD1 191254Z 22005KT 23/21 A299 RMK A01 T02250209  RH  091%=      5-min Rain = 0
KMD1 191255Z 22005KT 23/21 A299 RMK A01 T02260210  RH  091%=      5-min Rain = 0
KMD1 191256Z 22005KT 23/21 A299 RMK A01 T02270211  RH  091%=      5-min Rain = 0
KMD1 191257Z 22004KT 23/21 A299 RMK A01 T02280212  RH  091%=      5-min Rain = 0
KMD1 191258Z 21005KT 23/21 A299 RMK A01 T02290214  RH  091%=      5-min Rain = 0
KMD1 191259Z 21005KT 23/22 A299 RMK A01 T02300215  RH  091%=      5-min Rain = 0
KMD1 191300Z 21005KT 23/22 A299 RMK A01 T02320217  RH  092%=      5-min Rain = 0
KMD1 191301Z 20005KT 23/22 A299 RMK A01 T02340220  RH  092%=      5-min Rain = 0
KMD1 191302Z 20005KT 24/22 A299 RMK A01 T02350222  RH  092%=      5-min Rain = 0
KMD1 191303Z 20007KT 24/22 A299 RMK A01 T02370222  RH  092%=      5-min Rain = 0
KMD1 191304Z 20008KT 24/22 A299 RMK A01 T02380223  RH  091%=      5-min Rain = 0
KMD1 191305Z 20008KT 24/22 A299 RMK A01 T02390224  RH  091%=      5-min Rain = 0
KMD1 191306Z 20006KT 24/23 A299 RMK A01 T02410225  RH  091%=      5-min Rain = 0
KMD1 191307Z 20007G13KT 24/23 A299 RMK A01 T02420227  RH  091%=      5-min Rain = 0
KMD1 191308Z 20008KT 24/23 A299 RMK A01 T02430227  RH  090%=      5-min Rain = 0
KMD1 191309Z 20007KT 24/23 A299 RMK A01 T02440227  RH  090%=      5-min Rain = 0
KMD1 191310Z 20007KT 25/23 A299 RMK A01 T02450228  RH  090%=      5-min Rain = 0
KMD1 191311Z 20008KT 25/23 A299 RMK A01 T02460229  RH  090%=      5-min Rain = 0
KMD1 191312Z 20009KT 25/23 A299 RMK A01 T02470229  RH  090%=      5-min Rain = 0
KMD1 191313Z 20009KT 25/23 A299 RMK A01 T02470229  RH  089%=      5-min Rain = 0
KMD1 191314Z 20010KT 25/23 A299 RMK A01 T02480229  RH  089%=      5-min Rain = 0
KMD1 191315Z 20008KT 25/23 A299 RMK A01 T02490230  RH  089%=      5-min Rain = 0
KMD1 191316Z 21010KT 25/23 A299 RMK A01 T02500231  RH  089%=      5-min Rain = 0
KMD1 191317Z 20007KT 25/23 A299 RMK A01 T02510231  RH  089%=      5-min Rain = 0
KMD1 191318Z 21009KT 25/23 A299 RMK A01 T02510231  RH  089%=      5-min Rain = 0
KMD1 191319Z 21010KT 25/23 A299 RMK A01 T02520231  RH  088%=      5-min Rain = 0
KMD1 191320Z 21010KT 25/23 A299 RMK A01 T02520231  RH  088%=      5-min Rain = 0
KMD1 191321Z 20012KT 25/23 A299 RMK A01 T02530231  RH  088%=      5-min Rain = 0
KMD1 191322Z 20010KT 25/23 A299 RMK A01 T02530231  RH  087%=      5-min Rain = 0
KMD1 191323Z 20009G14KT 25/23 A299 RMK A01 T02540232  RH  088%=      5-min Rain = 0
KMD1 191324Z 20011KT 25/23 A299 RMK A01 T02540232  RH  088%=      5-min Rain = 0
KMD1 191325Z 20009KT 26/23 A299 RMK A01 T02550232  RH  087%=      5-min Rain = 0
KMD1 191326Z 20009KT 26/23 A299 RMK A01 T02550233  RH  088%=      5-min Rain = 0
KMD1 191327Z 20014KT 26/23 A299 RMK A01 T02560232  RH  087%=      5-min Rain = 0
KMD1 191328Z 19010KT 26/23 A299 RMK A01 T02560232  RH  087%=      5-min Rain = 0
KMD1 191329Z 20014KT 26/23 A299 RMK A01 T02560232  RH  087%=      5-min Rain = 0
KMD1 191330Z 19013KT 26/23 A299 RMK A01 T02560231  RH  086%=      5-min Rain = 0
KMD1 191331Z 19013KT 26/23 A2989 RMK A01 T02560231  RH  086%=      5-min Rain = 0
KMD1 191332Z 21012KT 26/23 A299 RMK A01 T02570232  RH  086%=      5-min Rain = 0
KMD1 191333Z 19011G16KT 26/23 A299 RMK A01 T02570233  RH  086%=      5-min Rain = 0
KMD1 191334Z 20011G16KT 26/23 A299 RMK A01 T02570232  RH  086%=      5-min Rain = 0
KMD1 191335Z 21009G16KT 26/23 A299 RMK A01 T02580234  RH  087%=      5-min Rain = 0
KMD1 191336Z 20010KT 26/23 A299 RMK A01 T02580233  RH  086%=      5-min Rain = 0
KMD1 191337Z 20012KT 26/23 A299 RMK A01 T02580233  RH  086%=      5-min Rain = 0
KMD1 191338Z 20012KT 26/23 A299 RMK A01 T02590232  RH  085%=      5-min Rain = 0
KMD1 191339Z 19016KT 26/23 A299 RMK A01 T02600232  RH  085%=      5-min Rain = 0
KMD1 191340Z 19013KT 26/23 A299 RMK A01 T02590231  RH  085%=      5-min Rain = 0
KMD1 191341Z 20012KT 26/23 A299 RMK A01 T02600232  RH  085%=      5-min Rain = 0
KMD1 191342Z 21011KT 26/23 A299 RMK A01 T02610233  RH  085%=      5-min Rain = 0
KMD1 191343Z 20013KT 26/23 A299 RMK A01 T02610233  RH  084%=      5-min Rain = 0
KMD1 191344Z 21012KT 26/23 A299 RMK A01 T02620233  RH  084%=      5-min Rain = 0
KMD1 191345Z 21010KT 26/23 A299 RMK A01 T02620233  RH  084%=      5-min Rain = 0
KMD1 191346Z 21008KT 26/24 A299 RMK A01 T02630235  RH  085%=      5-min Rain = 0
KMD1 191347Z 19011KT 26/24 A299 RMK A01 T02640236  RH  084%=      5-min Rain = 0
KMD1 191348Z 20013KT 26/23 A299 RMK A01 T02640234  RH  083%=      5-min Rain = 0
KMD1 191349Z 20011KT 26/23 A299 RMK A01 T02640234  RH  084%=      5-min Rain = 0
KMD1 191350Z 21008KT 26/24 A299 RMK A01 T02640235  RH  084%=      5-min Rain = 0
KMD1 191351Z 20010KT 27/24 A299 RMK A01 T02650236  RH  084%=      5-min Rain = 0
KMD1 191352Z 21008G13KT 27/24 A299 RMK A01 T02660235  RH  083%=      5-min Rain = 0
KMD1 191353Z 22010G15KT 27/24 A299 RMK A01 T02660237  RH  084%=      5-min Rain = 0
KMD1 191354Z 20012KT 27/24 A2989 RMK A01 T02670236  RH  083%=      5-min Rain = 0
KMD1 191355Z 21012KT 27/23 A2989 RMK A01 T02670234  RH  082%=      5-min Rain = 0
KMD1 191356Z 22011KT 27/24 A299 RMK A01 T02680236  RH  083%=      5-min Rain = 0
KMD1 191357Z 21009KT 27/24 A2989 RMK A01 T02680237  RH  083%=      5-min Rain = 0
KMD1 191358Z 21007KT 27/24 A2989 RMK A01 T02690238  RH  083%=      5-min Rain = 0
KMD1 191359Z 21012G17KT 27/24 A2989 RMK A01 T02700237  RH  082%=      5-min Rain = 0
KMD1 191400Z 22011KT 27/24 A2989 RMK A01 T02700235  RH  081%=      5-min Rain = 0
KMD1 191401Z 21013G18KT 27/24 A2989 RMK A01 T02700235  RH  081%=      5-min Rain = 0
KMD1 191402Z 20013G18KT 27/24 A2989 RMK A01 T02700235  RH  081%=      5-min Rain = 0
KMD1 191403Z 21016KT 27/23 A2989 RMK A01 T02690234  RH  081%=      5-min Rain = 0
KMD1 191404Z 21010KT 27/24 A2989 RMK A01 T02690235  RH  082%=      5-min Rain = 0
KMD1 191405Z 20014KT 27/24 A2989 RMK A01 T02690235  RH  082%=      5-min Rain = 0
KMD1 191406Z 20012KT 27/24 A299 RMK A01 T02690235  RH  082%=      5-min Rain = 0
KMD1 191407Z 21013KT 27/24 A299 RMK A01 T02690235  RH  082%=      5-min Rain = 0
KMD1 191408Z 22013G21KT 27/24 A2989 RMK A01 T02690235  RH  082%=      5-min Rain = 0
KMD1 191409Z 22013G20KT 27/23 A2989 RMK A01 T02690234  RH  082%=      5-min Rain = 0
KMD1 191410Z 22012KT 27/23 A2989 RMK A01 T02680234  RH  081%=      5-min Rain = 0
KMD1 191411Z 20010KT 27/23 A2989 RMK A01 T02680234  RH  082%=      5-min Rain = 0
KMD1 191412Z 22014G19KT 27/24 A299 RMK A01 T02700236  RH  082%=      5-min Rain = 0
KMD1 191413Z 22014KT 27/24 A299 RMK A01 T02700235  RH  081%=      5-min Rain = 0
KMD1 191414Z 22013G18KT 27/23 A299 RMK A01 T02700234  RH  081%=      5-min Rain = 0
KMD1 191415Z 22015KT 27/23 A299 RMK A01 T02700234  RH  081%=      5-min Rain = 0
KMD1 191416Z 21013KT 27/23 A299 RMK A01 T02710233  RH  080%=      5-min Rain = 0
KMD1 191417Z 21013G18KT 27/23 A299 RMK A01 T02710233  RH  080%=      5-min Rain = 0
KMD1 191418Z 21014G19KT 27/23 A299 RMK A01 T02710232  RH  079%=      5-min Rain = 0
KMD1 191419Z 21016G21KT 27/23 A299 RMK A01 T02710233  RH  080%=      5-min Rain = 0
KMD1 191420Z 22013G18KT 27/23 A299 RMK A01 T02720233  RH  079%=      5-min Rain = 0
KMD1 191421Z 21013G19KT 27/23 A299 RMK A01 T02720234  RH  080%=      5-min Rain = 0
KMD1 191422Z 22015KT 27/23 A299 RMK A01 T02720233  RH  079%=      5-min Rain = 0
KMD1 191423Z 21017KT 27/23 A299 RMK A01 T02720234  RH  079%=      5-min Rain = 0
KMD1 191424Z 21011G17KT 27/23 A299 RMK A01 T02720234  RH  080%=      5-min Rain = 0
KMD1 191425Z 22011G17KT 27/24 A299 RMK A01 T02720236  RH  081%=      5-min Rain = 0
KMD1 191426Z 20012G17KT 27/24 A299 RMK A01 T02730235  RH  080%=      5-min Rain = 0
KMD1 191427Z 20012G17KT 27/23 A299 RMK A01 T02740234  RH  079%=      5-min Rain = 0
KMD1 191428Z 21011KT 27/24 A299 RMK A01 T02740236  RH  080%=      5-min Rain = 0
KMD1 191429Z 21013G18KT 28/24 A299 RMK A01 T02750235  RH  079%=      5-min Rain = 0
KMD1 191430Z 21013KT 28/23 A299 RMK A01 T02750234  RH  078%=      5-min Rain = 0
KMD1 191431Z 21010KT 28/24 A299 RMK A01 T02750235  RH  079%=      5-min Rain = 0
KMD1 191432Z 21013KT 28/24 A2989 RMK A01 T02760235  RH  078%=      5-min Rain = 0
KMD1 191433Z 22012KT 28/24 A299 RMK A01 T02760236  RH  079%=      5-min Rain = 0
KMD1 191434Z 21016KT 28/24 A2989 RMK A01 T02760235  RH  078%=      5-min Rain = 0
KMD1 191435Z 22015KT 28/23 A2989 RMK A01 T02760233  RH  077%=      5-min Rain = 0
KMD1 191436Z 21012KT 28/24 A2989 RMK A01 T02760236  RH  079%=      5-min Rain = 0
KMD1 191437Z 21012KT 28/24 A2989 RMK A01 T02760235  RH  079%=      5-min Rain = 0
KMD1 191438Z 22012KT 28/24 A2989 RMK A01 T02770235  RH  078%=      5-min Rain = 0
KMD1 191439Z 21011KT 28/24 A2989 RMK A01 T02770237  RH  079%=      5-min Rain = 0
KMD1 191440Z 21011G16KT 28/24 A2989 RMK A01 T02780237  RH  078%=      5-min Rain = 0
KMD1 191441Z 21012KT 28/24 A2989 RMK A01 T02790236  RH  077%=      5-min Rain = 0
KMD1 191442Z 21011KT 28/24 A2989 RMK A01 T02790235  RH  077%=      5-min Rain = 0
KMD1 191443Z 22014G20KT 28/24 A2989 RMK A01 T02800236  RH  077%=      5-min Rain = 0
KMD1 191444Z 21013KT 28/23 A2989 RMK A01 T02800233  RH  076%=      5-min Rain = 0
KMD1 191445Z 20009G15KT 28/24 A2989 RMK A01 T02790236  RH  077%=      5-min Rain = 0
KMD1 191446Z 20017KT 28/24 A2989 RMK A01 T02800235  RH  077%=      5-min Rain = 0
KMD1 191447Z 20017G22KT 28/23 A2989 RMK A01 T02790234  RH  076%=      5-min Rain = 0
KMD1 191448Z 20014KT 28/24 A2989 RMK A01 T02790235  RH  077%=      5-min Rain = 0
KMD1 191449Z 20017G23KT 28/23 A2988 RMK A01 T02790233  RH  076%=      5-min Rain = 0
KMD1 191450Z 20017KT 28/23 A2988 RMK A01 T02790233  RH  076%=      5-min Rain = 0
KMD1 191451Z 20016G22KT 28/23 A2988 RMK A01 T02790234  RH  076%=      5-min Rain = 0
KMD1 191452Z 20013KT 28/24 A2989 RMK A01 T02790236  RH  077%=      5-min Rain = 0
KMD1 191453Z 20017G22KT 28/23 A2989 RMK A01 T02800234  RH  076%=      5-min Rain = 0
KMD1 191454Z 21016G21KT 28/23 A2989 RMK A01 T02810234  RH  076%=      5-min Rain = 0
KMD1 191455Z 20016G22KT 28/23 A2989 RMK A01 T02800233  RH  076%=      5-min Rain = 0
KMD1 191456Z 20017G25KT 28/23 A2989 RMK A01 T02810234  RH  076%=      5-min Rain = 0
KMD1 191457Z 20017KT 28/23 A2989 RMK A01 T02800232  RH  075%=      5-min Rain = 0
KMD1 191458Z 20017G22KT 28/23 A2988 RMK A01 T02810232  RH  075%=      5-min Rain = 0
KMD1 191459Z 20016G21KT 28/23 A2988 RMK A01 T02810232  RH  075%=      5-min Rain = 0
KMD1 191500Z 22015G20KT 28/23 A2988 RMK A01 T02820233  RH  075%=      5-min Rain = 0
KMD1 191501Z 21017G23KT 28/23 A2988 RMK A01 T02820233  RH  075%=      5-min Rain = 0
KMD1 191502Z 21017G23KT 28/23 A2988 RMK A01 T02830234  RH  075%=      5-min Rain = 0
KMD1 191503Z 20016G24KT 28/23 A2988 RMK A01 T02830231  RH  074%=      5-min Rain = 0
KMD1 191504Z 21013G22KT 28/23 A2988 RMK A01 T02830232  RH  074%=      5-min Rain = 0
KMD1 191505Z 20015G24KT 28/24 A2988 RMK A01 T02840235  RH  075%=      5-min Rain = 0
KMD1 191506Z 20017G22KT 28/23 A2988 RMK A01 T02840233  RH  074%=      5-min Rain = 0
KMD1 191507Z 21014G20KT 28/24 A2988 RMK A01 T02840235  RH  075%=      5-min Rain = 0
KMD1 191508Z 21015KT 28/23 A2988 RMK A01 T02840233  RH  074%=      5-min Rain = 0
KMD1 191509Z 20014G21KT 28/24 A2988 RMK A01 T02840235  RH  075%=      5-min Rain = 0
KMD1 191510Z 20015G21KT 29/24 A2988 RMK A01 T02850235  RH  075%=      5-min Rain = 0
KMD1 191511Z 20018G24KT 29/24 A2988 RMK A01 T02850235  RH  074%=      5-min Rain = 0
KMD1 191512Z 20017G22KT 29/23 A2988 RMK A01 T02860233  RH  073%=      5-min Rain = 0
KMD1 191513Z 20019G24KT 29/23 A2988 RMK A01 T02850232  RH  073%=      5-min Rain = 0
KMD1 191514Z 19015G20KT 29/23 A2988 RMK A01 T02850234  RH  074%=      5-min Rain = 0
KMD1 191515Z 19017KT 29/23 A2988 RMK A01 T02850233  RH  073%=      5-min Rain = 0
KMD1 191516Z 19017G23KT 29/23 A2988 RMK A01 T02850234  RH  074%=      5-min Rain = 0
KMD1 191517Z 20018G23KT 29/23 A2988 RMK A01 T02850234  RH  074%=      5-min Rain = 0
KMD1 191518Z 20013KT 29/24 A2988 RMK A01 T02850236  RH  075%=      5-min Rain = 0
KMD1 191519Z 21013KT 29/24 A2988 RMK A01 T02860237  RH  075%=      5-min Rain = 0
KMD1 191520Z 20010G15KT 29/24 A2988 RMK A01 T02870237  RH  074%=      5-min Rain = 0
KMD1 191521Z 21011KT 29/24 A2988 RMK A01 T02890239  RH  075%=      5-min Rain = 0
KMD1 191522Z 19012KT 29/24 A2988 RMK A01 T02900239  RH  074%=      5-min Rain = 0
KMD1 191523Z 19011G18KT 29/24 A2988 RMK A01 T02900238  RH  074%=      5-min Rain = 0
KMD1 191524Z 20015KT 29/24 A2988 RMK A01 T02900236  RH  073%=      5-min Rain = 0
KMD1 191525Z 20013G19KT 29/24 A2988 RMK A01 T02900237  RH  073%=      5-min Rain = 0
KMD1 191526Z 20013KT 29/24 A2988 RMK A01 T02900236  RH  072%=      5-min Rain = 0
KMD1 191527Z 20013KT 29/24 A2988 RMK A01 T02900237  RH  073%=      5-min Rain = 0
KMD1 191528Z 21013KT 29/24 A2988 RMK A01 T02910237  RH  073%=      5-min Rain = 0
KMD1 191529Z 20013G18KT 29/24 A2988 RMK A01 T02910238  RH  073%=      5-min Rain = 0
KMD1 191530Z 20012KT 29/24 A2988 RMK A01 T02920238  RH  073%=      5-min Rain = 0
KMD1 191531Z 20013KT 29/24 A2988 RMK A01 T02910238  RH  073%=      5-min Rain = 0
KMD1 191532Z 20009KT 29/24 A2988 RMK A01 T02910243  RH  075%=      5-min Rain = 0
KMD1 191533Z 21008KT 29/24 A2988 RMK A01 T02910242  RH  075%=      5-min Rain = 0
KMD1 191534Z 21012G17KT 29/24 A2988 RMK A01 T02930241  RH  074%=      5-min Rain = 0
KMD1 191535Z 21015KT 29/24 A2988 RMK A01 T02940235  RH  070%=      5-min Rain = 0
KMD1 191536Z 21009KT 29/24 A2988 RMK A01 T02940237  RH  072%=      5-min Rain = 0
KMD1 191537Z 21012KT 29/24 A2988 RMK A01 T02940240  RH  073%=      5-min Rain = 0
KMD1 191538Z 21012KT 29/24 A2987 RMK A01 T02940239  RH  072%=      5-min Rain = 0
KMD1 191539Z 19011KT 29/24 A2988 RMK A01 T02940241  RH  073%=      5-min Rain = 0
KMD1 191540Z 21010KT 29/24 A2987 RMK A01 T02940240  RH  073%=      5-min Rain = 0
KMD1 191541Z 20014KT 30/24 A2987 RMK A01 T02950239  RH  072%=      5-min Rain = 0
KMD1 191542Z 21011G16KT 30/24 A2987 RMK A01 T02950238  RH  072%=      5-min Rain = 0
KMD1 191543Z 21011KT 30/24 A2987 RMK A01 T02960238  RH  071%=      5-min Rain = 0
KMD1 191544Z 22012KT 30/24 A2987 RMK A01 T02960236  RH  070%=      5-min Rain = 0
KMD1 191545Z 21012KT 30/24 A2987 RMK A01 T02970239  RH  071%=      5-min Rain = 0
KMD1 191546Z 22011KT 30/24 A2987 RMK A01 T02980240  RH  071%=      5-min Rain = 0
KMD1 191547Z 21011KT 30/24 A2987 RMK A01 T02980239  RH  071%=      5-min Rain = 0
KMD1 191548Z 21010KT 30/24 A2987 RMK A01 T02980240  RH  071%=      5-min Rain = 0
KMD1 191549Z 20014KT 30/24 A2987 RMK A01 T02980237  RH  070%=      5-min Rain = 0
KMD1 191550Z 20012KT 30/24 A2987 RMK A01 T02980238  RH  070%=      5-min Rain = 0
KMD1 191551Z 21013KT 30/24 A2987 RMK A01 T02960237  RH  071%=      5-min Rain = 0
KMD1 191552Z 20013KT 30/24 A2987 RMK A01 T02960239  RH  071%=      5-min Rain = 0
KMD1 191553Z 20010KT 30/24 A2987 RMK A01 T02960239  RH  071%=      5-min Rain = 0
KMD1 191554Z 20009G15KT 30/24 A2987 RMK A01 T02960238  RH  071%=      5-min Rain = 0
KMD1 191555Z 21012G18KT 30/24 A2987 RMK A01 T02960239  RH  071%=      5-min Rain = 0
KMD1 191556Z 20012G18KT 30/24 A2987 RMK A01 T02970237  RH  070%=      5-min Rain = 0
KMD1 191557Z 20013G21KT 30/23 A2987 RMK A01 T02970234  RH  069%=      5-min Rain = 0
KMD1 191558Z 19017G22KT 30/23 A2987 RMK A01 T02970232  RH  068%=      5-min Rain = 0
KMD1 191559Z 20012KT 30/23 A2987 RMK A01 T02970233  RH  069%=      5-min Rain = 0
KMD1 191600Z 21012KT 30/24 A2987 RMK A01 T02960235  RH  070%=      5-min Rain = 0
KMD1 191601Z 20015G20KT 30/23 A2987 RMK A01 T02970233  RH  069%=      5-min Rain = 0
KMD1 191602Z 19016KT 30/23 A2987 RMK A01 T02970231  RH  068%=      5-min Rain = 0
KMD1 191603Z 21014G19KT 30/23 A2987 RMK A01 T02970232  RH  068%=      5-min Rain = 0
KMD1 191604Z 20013KT 30/23 A2987 RMK A01 T02970233  RH  068%=      5-min Rain = 0
KMD1 191605Z 21012G17KT 30/23 A2987 RMK A01 T02980233  RH  068%=      5-min Rain = 0
KMD1 191606Z 21013KT 30/23 A2987 RMK A01 T02980233  RH  068%=      5-min Rain = 0
KMD1 191607Z 20013KT 30/23 A2987 RMK A01 T02990233  RH  068%=      5-min Rain = 0
KMD1 191608Z 20012KT 30/23 A2987 RMK A01 T02990232  RH  067%=      5-min Rain = 0
KMD1 191609Z 22009G14KT 30/24 A2987 RMK A01 T02990236  RH  069%=      5-min Rain = 0
KMD1 191610Z 19010KT 30/24 A2987 RMK A01 T03000238  RH  069%=      5-min Rain = 0
KMD1 191611Z 20012KT 30/24 A2987 RMK A01 T03010236  RH  068%=      5-min Rain = 0
KMD1 191612Z 20013KT 30/23 A2987 RMK A01 T03010234  RH  067%=      5-min Rain = 0
KMD1 191613Z 19012G18KT 30/24 A2987 RMK A01 T03020236  RH  068%=      5-min Rain = 0
KMD1 191614Z 19015KT 30/24 A2987 RMK A01 T03010236  RH  068%=      5-min Rain = 0
KMD1 191615Z 19015KT 30/24 A2987 RMK A01 T03010236  RH  068%=      5-min Rain = 0
KMD1 191616Z 19011KT 30/24 A2987 RMK A01 T03000237  RH  069%=      5-min Rain = 0
KMD1 191617Z 18012KT 30/24 A2987 RMK A01 T03000237  RH  069%=      5-min Rain = 0
KMD1 191618Z 19011KT 30/24 A2987 RMK A01 T03010239  RH  069%=      5-min Rain = 0
KMD1 191619Z 19012KT 30/24 A2987 RMK A01 T03020236  RH  068%=      5-min Rain = 0
KMD1 191620Z 20009KT 30/24 A2987 RMK A01 T03020236  RH  068%=      5-min Rain = 0
KMD1 191621Z 19012G19KT 30/24 A2987 RMK A01 T03020239  RH  069%=      5-min Rain = 0
KMD1 191622Z 19011KT 30/23 A2987 RMK A01 T03040234  RH  066%=      5-min Rain = 0
KMD1 191623Z 20011KT 30/24 A2987 RMK A01 T03040237  RH  068%=      5-min Rain = 0
KMD1 191624Z 21011G16KT 30/24 A2987 RMK A01 T03040236  RH  067%=      5-min Rain = 0
KMD1 191625Z 21010KT 30/23 A2987 RMK A01 T03040234  RH  066%=      5-min Rain = 0
KMD1 191626Z 19014KT 30/23 A2987 RMK A01 T03040231  RH  065%=      5-min Rain = 0
KMD1 191627Z 18013KT 30/23 A2987 RMK A01 T03040231  RH  065%=      5-min Rain = 0
KMD1 191628Z 18012G17KT 30/24 A2987 RMK A01 T03040235  RH  067%=      5-min Rain = 0
KMD1 191629Z 19012KT 30/24 A2987 RMK A01 T03040237  RH  067%=      5-min Rain = 0
KMD1 191630Z 18013KT 30/23 A2987 RMK A01 T03030234  RH  067%=      5-min Rain = 0
KMD1 191631Z 18013KT 30/23 A2987 RMK A01 T03030234  RH  067%=      5-min Rain = 0
KMD1 191632Z 18010KT 30/24 A2987 RMK A01 T03030236  RH  068%=      5-min Rain = 0
KMD1 191633Z 18009KT 30/24 A2987 RMK A01 T03030237  RH  068%=      5-min Rain = 0
KMD1 191634Z 18012KT 30/24 A2987 RMK A01 T03040237  RH  068%=      5-min Rain = 0
KMD1 191635Z 19011KT 30/24 A2987 RMK A01 T03040237  RH  067%=      5-min Rain = 0
KMD1 191636Z 19012G17KT 31/23 A2987 RMK A01 T03050232  RH  065%=      5-min Rain = 0
KMD1 191637Z 19011G16KT 31/23 A2987 RMK A01 T03060234  RH  066%=      5-min Rain = 0
KMD1 191638Z 20009G14KT 31/23 A2987 RMK A01 T03060229  RH  064%=      5-min Rain = 0
KMD1 191639Z 20010KT 31/23 A2987 RMK A01 T03060233  RH  065%=      5-min Rain = 0
KMD1 191640Z 19011KT 31/24 A2987 RMK A01 T03070236  RH  066%=      5-min Rain = 0
KMD1 191641Z 20011G17KT 31/24 A2987 RMK A01 T03080239  RH  067%=      5-min Rain = 0
KMD1 191642Z 19011KT 31/24 A2987 RMK A01 T03080235  RH  065%=      5-min Rain = 0
KMD1 191643Z 21008KT 31/23 A2987 RMK A01 T03080232  RH  064%=      5-min Rain = 0
KMD1 191644Z 20007KT 31/24 A2987 RMK A01 T03080235  RH  065%=      5-min Rain = 0
KMD1 191645Z 21007KT 31/24 A2987 RMK A01 T03080236  RH  065%=      5-min Rain = 0
KMD1 191646Z 21011G17KT 31/24 A2987 RMK A01 T03100237  RH  065%=      5-min Rain = 0
KMD1 191647Z 21012KT 31/23 A2987 RMK A01 T03110231  RH  062%=      5-min Rain = 0
KMD1 191648Z 20009KT 31/24 A2987 RMK A01 T03100235  RH  064%=      5-min Rain = 0
KMD1 191649Z 20007KT 31/24 A2987 RMK A01 T03100237  RH  065%=      5-min Rain = 0
KMD1 191650Z 19008KT 31/24 A2987 RMK A01 T03110237  RH  065%=      5-min Rain = 0
KMD1 191651Z 20009KT 31/24 A2987 RMK A01 T03120238  RH  065%=      5-min Rain = 0
KMD1 191652Z 20011KT 31/23 A2987 RMK A01 T03130228  RH  061%=      5-min Rain = 0
KMD1 191653Z 20010KT 31/22 A2987 RMK A01 T03120224  RH  059%=      5-min Rain = 0
KMD1 191654Z 21009KT 31/22 A2987 RMK A01 T03120224  RH  060%=      5-min Rain = 0
KMD1 191655Z 24010KT 31/22 A2987 RMK A01 T03120224  RH  059%=      5-min Rain = 0
KMD1 191656Z 23009KT 31/22 A2987 RMK A01 T03130224  RH  059%=      5-min Rain = 0
KMD1 191657Z 20009KT 31/22 A2987 RMK A01 T03140224  RH  059%=      5-min Rain = 0
KMD1 191658Z 19011KT 31/23 A2987 RMK A01 T03140228  RH  060%=      5-min Rain = 0
KMD1 191659Z 19012KT 32/23 A2987 RMK A01 T03150225  RH  059%=      5-min Rain = 0
KMD1 191700Z 19010KT 32/23 A2987 RMK A01 T03150229  RH  060%=      5-min Rain = 0
KMD1 191701Z 20013KT 32/23 A2987 RMK A01 T03150227  RH  060%=      5-min Rain = 0
KMD1 191702Z 21012KT 32/22 A2987 RMK A01 T03150221  RH  058%=      5-min Rain = 0
KMD1 191703Z 20012KT 31/22 A2987 RMK A01 T03140221  RH  058%=      5-min Rain = 0
KMD1 191704Z 20010KT 31/23 A2987 RMK A01 T03140225  RH  059%=      5-min Rain = 0
KMD1 191705Z 21011G16KT 31/23 A2987 RMK A01 T03140229  RH  061%=      5-min Rain = 0
KMD1 191706Z 22014KT 31/23 A2987 RMK A01 T03140226  RH  060%=      5-min Rain = 0
KMD1 191707Z 22007KT 32/23 A2987 RMK A01 T03150226  RH  059%=      5-min Rain = 0
KMD1 191708Z 23010KT 32/23 A2987 RMK A01 T03170228  RH  060%=      5-min Rain = 0
KMD1 191709Z 22013KT 32/22 A2987 RMK A01 T03170221  RH  057%=      5-min Rain = 0
KMD1 191710Z 21011KT 32/22 A2987 RMK A01 T03170222  RH  057%=      5-min Rain = 0
KMD1 191711Z 21010KT 32/23 A2987 RMK A01 T03160226  RH  059%=      5-min Rain = 0
KMD1 191712Z 21012KT 32/22 A2987 RMK A01 T03160223  RH  058%=      5-min Rain = 0
KMD1 191713Z 22013KT 32/22 A2987 RMK A01 T03160221  RH  057%=      5-min Rain = 0
KMD1 191714Z 22015KT 32/22 A2987 RMK A01 T03160222  RH  057%=      5-min Rain = 0
KMD1 191715Z 22014KT 32/22 A2987 RMK A01 T03160220  RH  057%=      5-min Rain = 0
KMD1 191716Z 21007G12KT 32/22 A2986 RMK A01 T03160220  RH  057%=      5-min Rain = 0
KMD1 191717Z 22011KT 32/22 A2986 RMK A01 T03160219  RH  056%=      5-min Rain = 0
KMD1 191718Z 22011KT 32/22 A2986 RMK A01 T03160221  RH  057%=      5-min Rain = 0
KMD1 191719Z 23008G13KT 32/22 A2986 RMK A01 T03170223  RH  057%=      5-min Rain = 0
KMD1 191720Z 23011KT 32/23 A2986 RMK A01 T03180225  RH  058%=      5-min Rain = 0
KMD1 191721Z 21012G17KT 32/22 A2986 RMK A01 T03180223  RH  057%=      5-min Rain = 0
KMD1 191722Z 21012KT 32/22 A2986 RMK A01 T03180223  RH  057%=      5-min Rain = 0
KMD1 191723Z 20010G16KT 32/22 A2986 RMK A01 T03180224  RH  058%=      5-min Rain = 0
KMD1 191724Z 22012KT 32/23 A2986 RMK A01 T03180228  RH  059%=      5-min Rain = 0
KMD1 191725Z 21012KT 32/22 A2986 RMK A01 T03180219  RH  056%=      5-min Rain = 0
KMD1 191726Z 25011KT 32/22 A2986 RMK A01 T03180224  RH  058%=      5-min Rain = 0
KMD1 191727Z 24010KT 32/23 A2986 RMK A01 T03180226  RH  058%=      5-min Rain = 0
KMD1 191728Z 23010KT 32/22 A2986 RMK A01 T03180223  RH  057%=      5-min Rain = 0
KMD1 191729Z 22012KT 32/22 A2986 RMK A01 T03190222  RH  056%=      5-min Rain = 0
KMD1 191730Z 21008KT 32/23 A2986 RMK A01 T03200228  RH  058%=      5-min Rain = 0
KMD1 191731Z 21007KT 32/24 A2986 RMK A01 T03210236  RH  061%=      5-min Rain = 0
KMD1 191732Z 21007KT 32/23 A2986 RMK A01 T03210231  RH  059%=      5-min Rain = 0
KMD1 191733Z 20009KT 32/23 A2986 RMK A01 T03230231  RH  059%=      5-min Rain = 0
KMD1 191734Z 21014KT 32/23 A2986 RMK A01 T03240230  RH  058%=      5-min Rain = 0
KMD1 191735Z 22015G21KT 32/22 A2986 RMK A01 T03220220  RH  055%=      5-min Rain = 0
KMD1 191736Z 23014KT 32/22 A2986 RMK A01 T03210222  RH  056%=      5-min Rain = 0
KMD1 191737Z 23011KT 32/22 A2986 RMK A01 T03210223  RH  056%=      5-min Rain = 0
KMD1 191738Z 22011KT 32/22 A2986 RMK A01 T03200221  RH  056%=      5-min Rain = 0
KMD1 191739Z 21011KT 32/22 A2986 RMK A01 T03210222  RH  056%=      5-min Rain = 0
KMD1 191740Z 21010KT 32/23 A2986 RMK A01 T03220230  RH  058%=      5-min Rain = 0
KMD1 191741Z 21012KT 32/23 A2986 RMK A01 T03220226  RH  057%=      5-min Rain = 0
KMD1 191742Z 21009KT 32/22 A2986 RMK A01 T03230223  RH  056%=      5-min Rain = 0
KMD1 191743Z 21008KT 32/23 A2986 RMK A01 T03220225  RH  057%=      5-min Rain = 0
KMD1 191744Z 21007KT 32/23 A2986 RMK A01 T03220230  RH  058%=      5-min Rain = 0
KMD1 191745Z 22009KT 32/24 A2986 RMK A01 T03230237  RH  061%=      5-min Rain = 0
KMD1 191746Z 22011G16KT 33/22 A2986 RMK A01 T03250221  RH  055%=      5-min Rain = 0
KMD1 191747Z 22010KT 32/22 A2986 RMK A01 T03240221  RH  055%=      5-min Rain = 0
KMD1 191748Z 21011KT 32/22 A2986 RMK A01 T03230223  RH  056%=      5-min Rain = 0
KMD1 191749Z 22010KT 32/23 A2986 RMK A01 T03240230  RH  058%=      5-min Rain = 0
KMD1 191750Z 24008KT 33/23 A2986 RMK A01 T03250229  RH  057%=      5-min Rain = 0
KMD1 191751Z 23011KT 33/23 A2986 RMK A01 T03260226  RH  056%=      5-min Rain = 0
KMD1 191752Z 23012KT 33/22 A2986 RMK A01 T03260221  RH  054%=      5-min Rain = 0
KMD1 191753Z 22009KT 33/22 A2986 RMK A01 T03250223  RH  055%=      5-min Rain = 0
KMD1 191754Z 22010G15KT 32/23 A2986 RMK A01 T03240230  RH  058%=      5-min Rain = 0
KMD1 191755Z 21013G18KT 32/22 A2986 RMK A01 T03240222  RH  055%=      5-min Rain = 0
KMD1 191756Z 21010KT 32/22 A2986 RMK A01 T03240223  RH  055%=      5-min Rain = 0
KMD1 191757Z 19010KT 32/22 A2986 RMK A01 T03230223  RH  056%=      5-min Rain = 0
KMD1 191758Z 20009KT 32/22 A2986 RMK A01 T03230224  RH  056%=      5-min Rain = 0
KMD1 191759Z 21007KT 32/22 A2986 RMK A01 T03230224  RH  056%=      5-min Rain = 0
KMD1 191800Z 23009KT 32/22 A2986 RMK A01 T03230224  RH  056%=      5-min Rain = 0
KMD1 191801Z 22008KT 32/22 A2986 RMK A01 T03240224  RH  056%=      5-min Rain = 0
KMD1 191802Z 20010KT 32/23 A2986 RMK A01 T03240227  RH  057%=      5-min Rain = 0
KMD1 191803Z 22009KT 32/23 A2986 RMK A01 T03240225  RH  056%=      5-min Rain = 0
KMD1 191804Z 22006KT 33/23 A2986 RMK A01 T03250232  RH  058%=      5-min Rain = 0
KMD1 191805Z 23007KT 33/24 A2986 RMK A01 T03260235  RH  059%=      5-min Rain = 0
KMD1 191806Z 20008G13KT 33/24 A2986 RMK A01 T03270236  RH  059%=      5-min Rain = 0
KMD1 191807Z 19012KT 33/23 A2986 RMK A01 T03280228  RH  056%=      5-min Rain = 0
KMD1 191808Z 19009KT 33/23 A2986 RMK A01 T03260228  RH  056%=      5-min Rain = 0
KMD1 191809Z 20008KT 33/23 A2986 RMK A01 T03260232  RH  058%=      5-min Rain = 0
KMD1 191810Z 23006KT 33/24 A2986 RMK A01 T03260237  RH  060%=      5-min Rain = 0
KMD1 191811Z 23007KT 33/24 A2985 RMK A01 T03280235  RH  058%=      5-min Rain = 0
KMD1 191812Z 24007KT 33/23 A2985 RMK A01 T03280231  RH  057%=      5-min Rain = 0
KMD1 191813Z 22009KT 33/23 A2985 RMK A01 T03270228  RH  056%=      5-min Rain = 0
KMD1 191814Z 19007G12KT 33/23 A2985 RMK A01 T03270229  RH  056%=      5-min Rain = 0
KMD1 191815Z 20011KT 33/23 A2985 RMK A01 T03270229  RH  056%=      5-min Rain = 0
KMD1 191816Z 22012KT 33/23 A2985 RMK A01 T03280230  RH  057%=      5-min Rain = 0
KMD1 191817Z 23009KT 33/23 A2985 RMK A01 T03280228  RH  056%=      5-min Rain = 0
KMD1 191818Z 22009KT 33/23 A2985 RMK A01 T03280226  RH  055%=      5-min Rain = 0
KMD1 191819Z 22008KT 33/23 A2985 RMK A01 T03270230  RH  057%=      5-min Rain = 0
KMD1 191820Z 22011KT 33/23 A2985 RMK A01 T03280229  RH  056%=      5-min Rain = 0
KMD1 191821Z 22011KT 33/23 A2985 RMK A01 T03280227  RH  055%=      5-min Rain = 0
KMD1 191822Z 21008KT 33/22 A2985 RMK A01 T03280223  RH  054%=      5-min Rain = 0
KMD1 191823Z 20007KT 33/23 A2985 RMK A01 T03270230  RH  056%=      5-min Rain = 0
KMD1 191824Z 20009KT 33/23 A2985 RMK A01 T03270230  RH  057%=      5-min Rain = 0
KMD1 191825Z 20010KT 33/23 A2985 RMK A01 T03280229  RH  056%=      5-min Rain = 0
KMD1 191826Z 22009KT 33/23 A2985 RMK A01 T03280228  RH  056%=      5-min Rain = 0
KMD1 191827Z 22011KT 33/23 A2985 RMK A01 T03280226  RH  055%=      5-min Rain = 0
KMD1 191828Z 23010KT 33/23 A2985 RMK A01 T03280228  RH  056%=      5-min Rain = 0
KMD1 191829Z 22011KT 33/23 A2985 RMK A01 T03280228  RH  055%=      5-min Rain = 0
KMD1 191830Z 21009KT 33/23 A2985 RMK A01 T03290232  RH  057%=      5-min Rain = 0
KMD1 191831Z 20008KT 33/23 A2985 RMK A01 T03300227  RH  055%=      5-min Rain = 0
KMD1 191832Z 20006KT 33/23 A2985 RMK A01 T03300233  RH  057%=      5-min Rain = 0
KMD1 191833Z 23009G15KT 33/24 A2985 RMK A01 T03300235  RH  057%=      5-min Rain = 0
KMD1 191834Z 20011KT 33/23 A2985 RMK A01 T03310228  RH  055%=      5-min Rain = 0
KMD1 191835Z 20010KT 33/22 A2985 RMK A01 T03310224  RH  054%=      5-min Rain = 0
KMD1 191836Z 22013KT 33/22 A2985 RMK A01 T03310224  RH  054%=      5-min Rain = 0
KMD1 191837Z 22011KT 33/22 A2985 RMK A01 T03310224  RH  054%=      5-min Rain = 0
KMD1 191838Z 22008KT 33/22 A2985 RMK A01 T03310224  RH  054%=      5-min Rain = 0
KMD1 191839Z 23006KT 33/23 A2985 RMK A01 T03310225  RH  054%=      5-min Rain = 0
KMD1 191840Z 23006KT 33/23 A2985 RMK A01 T03310226  RH  054%=      5-min Rain = 0
KMD1 191841Z 21006KT 33/23 A2985 RMK A01 T03310231  RH  056%=      5-min Rain = 0
KMD1 191842Z 23007KT 33/23 A2985 RMK A01 T03320229  RH  055%=      5-min Rain = 0
KMD1 191843Z 23008KT 33/23 A2985 RMK A01 T03340226  RH  053%=      5-min Rain = 0
KMD1 191844Z 21011KT 33/23 A2984 RMK A01 T03340227  RH  054%=      5-min Rain = 0
KMD1 191845Z 21011KT 33/23 A2984 RMK A01 T03340227  RH  053%=      5-min Rain = 0
KMD1 191846Z 21014KT 33/23 A2984 RMK A01 T03330230  RH  055%=      5-min Rain = 0
KMD1 191847Z 21013KT 33/23 A2984 RMK A01 T03320227  RH  054%=      5-min Rain = 0
KMD1 191848Z 21010KT 33/23 A2984 RMK A01 T03310230  RH  055%=      5-min Rain = 0
KMD1 191849Z 22010G15KT 33/23 A2984 RMK A01 T03300227  RH  055%=      5-min Rain = 0
KMD1 191850Z 22010KT 33/23 A2984 RMK A01 T03300229  RH  055%=      5-min Rain = 0
KMD1 191851Z 21010KT 33/23 A2984 RMK A01 T03310226  RH  054%=      5-min Rain = 0
KMD1 191852Z 21008KT 33/22 A2984 RMK A01 T03310219  RH  052%=      5-min Rain = 0
KMD1 191853Z 22006KT 33/22 A2984 RMK A01 T03310215  RH  051%=      5-min Rain = 0
KMD1 191854Z 20013KT 33/22 A2984 RMK A01 T03320224  RH  053%=      5-min Rain = 0
KMD1 191855Z 21013KT 33/22 A2984 RMK A01 T03320223  RH  053%=      5-min Rain = 0
KMD1 191856Z 21009G14KT 33/23 A2984 RMK A01 T03330228  RH  054%=      5-min Rain = 0
KMD1 191857Z 21011KT 33/23 A2984 RMK A01 T03330226  RH  054%=      5-min Rain = 0
KMD1 191858Z 22009KT 33/23 A2984 RMK A01 T03330226  RH  054%=      5-min Rain = 0
KMD1 191859Z 23008KT 33/23 A2984 RMK A01 T03330231  RH  055%=      5-min Rain = 0
KMD1 191900Z 22007KT 33/23 A2984 RMK A01 T03340225  RH  053%=      5-min Rain = 0
KMD1 191901Z 21008G14KT 33/23 A2984 RMK A01 T03340229  RH  054%=      5-min Rain = 0
KMD1 191902Z 21010KT 34/23 A2983 RMK A01 T03350228  RH  054%=      5-min Rain = 0
KMD1 191903Z 20014G19KT 34/23 A2983 RMK A01 T03350225  RH  052%=      5-min Rain = 0
KMD1 191904Z 20011KT 34/23 A2984 RMK A01 T03350225  RH  053%=      5-min Rain = 0
KMD1 191905Z 20012KT 33/22 A2984 RMK A01 T03340220  RH  051%=      5-min Rain = 0
KMD1 191906Z 22009KT 33/22 A2984 RMK A01 T03340221  RH  052%=      5-min Rain = 0
KMD1 191907Z 21008KT 33/22 A2984 RMK A01 T03340219  RH  051%=      5-min Rain = 0
KMD1 191908Z 22006KT 33/22 A2983 RMK A01 T03340224  RH  053%=      5-min Rain = 0
KMD1 191909Z 23007KT 33/23 A2984 RMK A01 T03340230  RH  055%=      5-min Rain = 0
KMD1 191910Z 23006KT 34/23 A2983 RMK A01 T03350229  RH  054%=      5-min Rain = 0
KMD1 191911Z 22006KT 34/23 A2983 RMK A01 T03360232  RH  055%=      5-min Rain = 0
KMD1 191912Z 19009KT 34/23 A2983 RMK A01 T03370233  RH  055%=      5-min Rain = 0
KMD1 191913Z 19008KT 34/23 A2983 RMK A01 T03370233  RH  055%=      5-min Rain = 0
KMD1 191914Z 20008KT 34/23 A2983 RMK A01 T03360233  RH  055%=      5-min Rain = 0
KMD1 191915Z 20007KT 34/24 A2983 RMK A01 T03350235  RH  056%=      5-min Rain = 0
KMD1 191916Z 20010KT 34/23 A2983 RMK A01 T03360233  RH  055%=      5-min Rain = 0
KMD1 191917Z 18011KT 34/23 A2983 RMK A01 T03360228  RH  053%=      5-min Rain = 0
KMD1 191918Z 18013KT 34/23 A2983 RMK A01 T03360229  RH  054%=      5-min Rain = 0
KMD1 191919Z 19012KT 34/23 A2983 RMK A01 T03350228  RH  053%=      5-min Rain = 0
KMD1 191920Z 23012KT 34/23 A2983 RMK A01 T03350228  RH  054%=      5-min Rain = 0
KMD1 191921Z 23009KT 34/23 A2983 RMK A01 T03350228  RH  054%=      5-min Rain = 0
KMD1 191922Z 22010KT 34/22 A2983 RMK A01 T03350224  RH  052%=      5-min Rain = 0
KMD1 191923Z 22009KT 34/22 A2983 RMK A01 T03370223  RH  051%=      5-min Rain = 0
KMD1 191924Z 22010KT 34/22 A2983 RMK A01 T03370222  RH  051%=      5-min Rain = 0
KMD1 191925Z 21006KT 34/23 A2983 RMK A01 T03370231  RH  054%=      5-min Rain = 0
KMD1 191926Z 23007KT 34/23 A2983 RMK A01 T03370226  RH  052%=      5-min Rain = 0
KMD1 191927Z 25008KT 34/23 A2982 RMK A01 T03390233  RH  054%=      5-min Rain = 0
KMD1 191928Z 23005KT 34/22 A2982 RMK A01 T03390224  RH  051%=      5-min Rain = 0
KMD1 191929Z 22007KT 34/23 A2982 RMK A01 T03400233  RH  054%=      5-min Rain = 0
KMD1 191930Z 19012KT 34/23 A2982 RMK A01 T03410232  RH  053%=      5-min Rain = 0
KMD1 191931Z 19012KT 34/23 A2982 RMK A01 T03390230  RH  053%=      5-min Rain = 0
KMD1 191932Z 19010KT 34/23 A2982 RMK A01 T03360227  RH  053%=      5-min Rain = 0
KMD1 191933Z 17012G21KT 34/23 A2982 RMK A01 T03350233  RH  055%=      5-min Rain = 0
KMD1 191934Z 19017KT 34/23 A2982 RMK A01 T03350228  RH  054%=      5-min Rain = 0
KMD1 191935Z 21010G16KT 33/23 A2982 RMK A01 T03340226  RH  053%=      5-min Rain = 0
KMD1 191936Z 20011KT 34/22 A2982 RMK A01 T03350221  RH  051%=      5-min Rain = 0
KMD1 191937Z 20010KT 34/22 A2982 RMK A01 T03360224  RH  052%=      5-min Rain = 0
KMD1 191938Z 21007KT 34/23 A2982 RMK A01 T03370227  RH  053%=      5-min Rain = 0
KMD1 191939Z 22012KT 34/23 A2982 RMK A01 T03380226  RH  052%=      5-min Rain = 0
KMD1 191940Z 23012G17KT 34/22 A2982 RMK A01 T03390221  RH  050%=      5-min Rain = 0
KMD1 191941Z 23013KT 34/23 A2982 RMK A01 T03380225  RH  052%=      5-min Rain = 0
KMD1 191942Z 23010KT 34/22 A2982 RMK A01 T03370222  RH  051%=      5-min Rain = 0
KMD1 191943Z 22012KT 34/22 A2982 RMK A01 T03370219  RH  050%=      5-min Rain = 0
KMD1 191944Z 21009KT 34/22 A2982 RMK A01 T03370222  RH  051%=      5-min Rain = 0
KMD1 191945Z 20011KT 34/23 A2982 RMK A01 T03370230  RH  054%=      5-min Rain = 0
KMD1 191946Z 21009KT 34/23 A2982 RMK A01 T03390230  RH  053%=      5-min Rain = 0
KMD1 191947Z 21012KT 34/23 A2982 RMK A01 T03410226  RH  051%=      5-min Rain = 0
KMD1 191948Z 22007G12KT 34/23 A2982 RMK A01 T03410231  RH  053%=      5-min Rain = 0
KMD1 191949Z 20012KT 34/23 A2982 RMK A01 T03410225  RH  051%=      5-min Rain = 0
KMD1 191950Z 19012KT 34/23 A2982 RMK A01 T03410226  RH  051%=      5-min Rain = 0
KMD1 191951Z 20012KT 34/22 A2982 RMK A01 T03400223  RH  051%=      5-min Rain = 0
KMD1 191952Z 20013KT 34/22 A2982 RMK A01 T03390223  RH  051%=      5-min Rain = 0
KMD1 191953Z 21010KT 34/22 A2982 RMK A01 T03390220  RH  050%=      5-min Rain = 0
KMD1 191954Z 22010KT 34/22 A2982 RMK A01 T03390223  RH  051%=      5-min Rain = 0
KMD1 191955Z 20010KT 34/23 A2982 RMK A01 T03390230  RH  053%=      5-min Rain = 0
KMD1 191956Z 19011KT 34/22 A2982 RMK A01 T03390223  RH  051%=      5-min Rain = 0
KMD1 191957Z 20007KT 34/23 A2982 RMK A01 T03380231  RH  053%=      5-min Rain = 0
KMD1 191958Z 21009KT 34/23 A2982 RMK A01 T03380225  RH  052%=      5-min Rain = 0
KMD1 191959Z 20006KT 34/23 A2982 RMK A01 T03400232  RH  054%=      5-min Rain = 0
KMD1 192000Z 21010G16KT 34/23 A2982 RMK A01 T03410230  RH  052%=      5-min Rain = 0
KMD1 192001Z 22012KT 34/23 A2982 RMK A01 T03420228  RH  052%=      5-min Rain = 0
KMD1 192002Z 24010KT 34/23 A2982 RMK A01 T03420228  RH  051%=      5-min Rain = 0
KMD1 192003Z 22007KT 34/23 A2982 RMK A01 T03410225  RH  051%=      5-min Rain = 0
KMD1 192004Z 24007KT 34/22 A2982 RMK A01 T03400223  RH  050%=      5-min Rain = 0
KMD1 192005Z 24009KT 34/23 A2982 RMK A01 T03410233  RH  053%=      5-min Rain = 0
KMD1 192006Z 23009KT 34/23 A2982 RMK A01 T03410225  RH  051%=      5-min Rain = 0
KMD1 192007Z 23009KT 34/23 A2982 RMK A01 T03410225  RH  051%=      5-min Rain = 0
KMD1 192008Z 20009KT 34/23 A2982 RMK A01 T03420233  RH  053%=      5-min Rain = 0
KMD1 192009Z 20012KT 34/23 A2982 RMK A01 T03430225  RH  050%=      5-min Rain = 0
KMD1 192010Z 19011KT 34/23 A2982 RMK A01 T03420228  RH  051%=      5-min Rain = 0
KMD1 192011Z 21009KT 34/23 A2982 RMK A01 T03420226  RH  051%=      5-min Rain = 0
KMD1 192012Z 21006KT 34/23 A2982 RMK A01 T03420227  RH  051%=      5-min Rain = 0
KMD1 192013Z 20007KT 34/24 A2982 RMK A01 T03420236  RH  054%=      5-min Rain = 0
KMD1 192014Z 20008KT 34/24 A2982 RMK A01 T03430236  RH  054%=      5-min Rain = 0
KMD1 192015Z 22008KT 35/24 A2982 RMK A01 T03450238  RH  054%=      5-min Rain = 0
KMD1 192016Z 21011G16KT 35/23 A2982 RMK A01 T03450234  RH  053%=      5-min Rain = 0
KMD1 192017Z 20011KT 35/23 A2982 RMK A01 T03460226  RH  050%=      5-min Rain = 0
KMD1 192018Z 22011KT 35/22 A2982 RMK A01 T03450220  RH  049%=      5-min Rain = 0
KMD1 192019Z 22009KT 34/23 A2981 RMK A01 T03430228  RH  051%=      5-min Rain = 0
KMD1 192020Z 20007KT 34/24 A2981 RMK A01 T03430236  RH  054%=      5-min Rain = 0
KMD1 192021Z 20009G14KT 34/24 A2981 RMK A01 T03430238  RH  054%=      5-min Rain = 0
KMD1 192022Z 20009KT 34/23 A2981 RMK A01 T03430226  RH  051%=      5-min Rain = 0
KMD1 192023Z 19008KT 34/23 A2981 RMK A01 T03430229  RH  052%=      5-min Rain = 0
KMD1 192024Z 20011KT 34/24 A2981 RMK A01 T03430235  RH  054%=      5-min Rain = 0
KMD1 192025Z 22011KT 34/23 A2981 RMK A01 T03430230  RH  052%=      5-min Rain = 0
KMD1 192026Z 23010KT 34/22 A2981 RMK A01 T03430224  RH  050%=      5-min Rain = 0
KMD1 192027Z 23010KT 34/22 A2981 RMK A01 T03420221  RH  049%=      5-min Rain = 0
KMD1 192028Z 22010KT 34/22 A2981 RMK A01 T03410219  RH  049%=      5-min Rain = 0
KMD1 192029Z 22008KT 34/22 A2981 RMK A01 T03420220  RH  049%=      5-min Rain = 0
KMD1 192030Z 23009G14KT 34/23 A2981 RMK A01 T03420234  RH  053%=      5-min Rain = 0
KMD1 192031Z 23011KT 34/23 A2981 RMK A01 T03430226  RH  051%=      5-min Rain = 0
KMD1 192032Z 23010KT 34/23 A2981 RMK A01 T03420226  RH  051%=      5-min Rain = 0
KMD1 192033Z 23006KT 34/23 A2981 RMK A01 T03420230  RH  052%=      5-min Rain = 0
KMD1 192034Z 23010KT 34/23 A2981 RMK A01 T03430228  RH  051%=      5-min Rain = 0
KMD1 192035Z 22010G15KT 34/22 A2981 RMK A01 T03440224  RH  050%=      5-min Rain = 0
KMD1 192036Z 22012KT 35/23 A2981 RMK A01 T03450228  RH  051%=      5-min Rain = 0
KMD1 192037Z 23009KT 35/23 A2981 RMK A01 T03450230  RH  051%=      5-min Rain = 0
KMD1 192038Z 22011KT 35/23 A2981 RMK A01 T03450229  RH  051%=      5-min Rain = 0
KMD1 192039Z 21010KT 35/23 A2981 RMK A01 T03450228  RH  051%=      5-min Rain = 0
KMD1 192040Z 21008KT 34/23 A2981 RMK A01 T03430225  RH  050%=      5-min Rain = 0
KMD1 192041Z 24008KT 34/22 A2981 RMK A01 T03430223  RH  050%=      5-min Rain = 0
KMD1 192042Z 24009KT 34/23 A2981 RMK A01 T03430226  RH  051%=      5-min Rain = 0
KMD1 192043Z 25007KT 34/23 A2981 RMK A01 T03420227  RH  051%=      5-min Rain = 0
KMD1 192044Z 24007KT 34/23 A2981 RMK A01 T03430228  RH  051%=      5-min Rain = 0
KMD1 192045Z 22009KT 34/23 A2981 RMK A01 T03440230  RH  051%=      5-min Rain = 0
KMD1 192046Z 21012KT 35/23 A2981 RMK A01 T03460231  RH  052%=      5-min Rain = 0
KMD1 192047Z 22011KT 35/23 A2981 RMK A01 T03460227  RH  050%=      5-min Rain = 0
KMD1 192048Z 22009KT 35/23 A2981 RMK A01 T03460228  RH  050%=      5-min Rain = 0
KMD1 192049Z 21011KT 35/23 A2981 RMK A01 T03470227  RH  050%=      5-min Rain = 0
KMD1 192050Z 21011KT 35/22 A2981 RMK A01 T03470223  RH  049%=      5-min Rain = 0
KMD1 192051Z 20008KT 35/23 A2981 RMK A01 T03450226  RH  050%=      5-min Rain = 0
KMD1 192052Z 21007KT 35/23 A2981 RMK A01 T03450234  RH  053%=      5-min Rain = 0
KMD1 192053Z 22008KT 34/23 A2981 RMK A01 T03430228  RH  051%=      5-min Rain = 0
KMD1 192054Z 22009G15KT 34/23 A2981 RMK A01 T03420228  RH  052%=      5-min Rain = 0
KMD1 192055Z 20009KT 34/23 A298 RMK A01 T03420227  RH  051%=      5-min Rain = 0
KMD1 192056Z 21010KT 34/23 A298 RMK A01 T03430225  RH  050%=      5-min Rain = 0
KMD1 192057Z 22012G17KT 34/23 A298 RMK A01 T03440230  RH  052%=      5-min Rain = 0
KMD1 192058Z 21013G18KT 34/23 A298 RMK A01 T03440226  RH  050%=      5-min Rain = 0
KMD1 192059Z 21011KT 34/23 A298 RMK A01 T03440228  RH  051%=      5-min Rain = 0
KMD1 192100Z 22008KT 34/23 A298 RMK A01 T03440229  RH  051%=      5-min Rain = 0
KMD1 192101Z 23010KT 34/23 A298 RMK A01 T03440227  RH  050%=      5-min Rain = 0
KMD1 192102Z 22009KT 35/23 A298 RMK A01 T03450228  RH  051%=      5-min Rain = 0
KMD1 192103Z 20009KT 35/22 A298 RMK A01 T03450221  RH  049%=      5-min Rain = 0
KMD1 192104Z 20007KT 35/23 A298 RMK A01 T03450229  RH  051%=      5-min Rain = 0
KMD1 192105Z 21006KT 35/23 A298 RMK A01 T03450231  RH  052%=      5-min Rain = 0
KMD1 192106Z 21006KT 35/23 A298 RMK A01 T03450227  RH  050%=      5-min Rain = 0
KMD1 192107Z 20008KT 35/23 A298 RMK A01 T03470228  RH  050%=      5-min Rain = 0
KMD1 192108Z 21008KT 35/23 A298 RMK A01 T03470232  RH  051%=      5-min Rain = 0
KMD1 192109Z 20010KT 35/23 A298 RMK A01 T03470232  RH  051%=      5-min Rain = 0
KMD1 192110Z 20010KT 35/23 A298 RMK A01 T03460231  RH  051%=      5-min Rain = 0
KMD1 192111Z 19008KT 35/24 A298 RMK A01 T03460238  RH  054%=      5-min Rain = 0
KMD1 192112Z 19010KT 35/24 A298 RMK A01 T03460237  RH  053%=      5-min Rain = 0
KMD1 192113Z 20008KT 35/24 A298 RMK A01 T03460236  RH  053%=      5-min Rain = 0
KMD1 192114Z 22008KT 35/24 A298 RMK A01 T03460237  RH  053%=      5-min Rain = 0
KMD1 192115Z 22010KT 35/23 A298 RMK A01 T03470227  RH  050%=      5-min Rain = 0
KMD1 192116Z 23010KT 35/23 A298 RMK A01 T03470226  RH  050%=      5-min Rain = 0
KMD1 192117Z 22008KT 35/22 A298 RMK A01 T03470224  RH  049%=      5-min Rain = 0
KMD1 192118Z 21010KT 35/22 A298 RMK A01 T03480223  RH  048%=      5-min Rain = 0
KMD1 192119Z 20010KT 35/22 A298 RMK A01 T03470221  RH  048%=      5-min Rain = 0
KMD1 192120Z 21010KT 35/22 A298 RMK A01 T03480223  RH  048%=      5-min Rain = 0
KMD1 192121Z 22010G15KT 35/23 A298 RMK A01 T03470227  RH  050%=      5-min Rain = 0
KMD1 192122Z 21011KT 35/23 A298 RMK A01 T03460229  RH  051%=      5-min Rain = 0
KMD1 192123Z 21009KT 35/23 A298 RMK A01 T03460231  RH  051%=      5-min Rain = 0
KMD1 192124Z 20009KT 35/23 A298 RMK A01 T03460234  RH  052%=      5-min Rain = 0
KMD1 192125Z 21010KT 35/23 A298 RMK A01 T03450226  RH  050%=      5-min Rain = 0
KMD1 192126Z 21011KT 34/22 A298 RMK A01 T03430223  RH  050%=      5-min Rain = 0
KMD1 192127Z 21010KT 34/22 A298 RMK A01 T03420218  RH  049%=      5-min Rain = 0
KMD1 192128Z 21010KT 34/22 A298 RMK A01 T03430221  RH  049%=      5-min Rain = 0
KMD1 192129Z 21008KT 34/22 A2979 RMK A01 T03430222  RH  049%=      5-min Rain = 0
KMD1 192130Z 21009KT 34/23 A2979 RMK A01 T03420226  RH  051%=      5-min Rain = 0
KMD1 192131Z 20010KT 34/23 A2979 RMK A01 T03420230  RH  052%=      5-min Rain = 0
KMD1 192132Z 20009KT 34/23 A2979 RMK A01 T03400229  RH  052%=      5-min Rain = 0
KMD1 192133Z 20010KT 34/23 A2979 RMK A01 T03400227  RH  052%=      5-min Rain = 0
KMD1 192134Z 19011KT 34/23 A2979 RMK A01 T03420226  RH  051%=      5-min Rain = 0
KMD1 192135Z 19007KT 34/23 A2979 RMK A01 T03440230  RH  052%=      5-min Rain = 0
KMD1 192136Z 20014G19KT 35/23 A2979 RMK A01 T03460226  RH  050%=      5-min Rain = 0
KMD1 192137Z 20013G18KT 35/23 A2979 RMK A01 T03460227  RH  050%=      5-min Rain = 0
KMD1 192138Z 20012G18KT 34/23 A2979 RMK A01 T03420229  RH  052%=      5-min Rain = 0
KMD1 192139Z 21012KT 34/23 A2979 RMK A01 T03380226  RH  052%=      5-min Rain = 0
KMD1 192140Z 20010KT 34/22 A2979 RMK A01 T03370223  RH  051%=      5-min Rain = 0
KMD1 192141Z 20007KT 34/23 A2979 RMK A01 T03390232  RH  054%=      5-min Rain = 0
KMD1 192142Z 20007KT 34/24 A2979 RMK A01 T03420236  RH  054%=      5-min Rain = 0
KMD1 192143Z 20009KT 34/23 A2979 RMK A01 T03430231  RH  052%=      5-min Rain = 0
KMD1 192144Z 20011KT 34/23 A2979 RMK A01 T03440227  RH  051%=      5-min Rain = 0
KMD1 192145Z 19009KT 34/23 A2979 RMK A01 T03440226  RH  050%=      5-min Rain = 0
KMD1 192146Z 20011KT 35/23 A2979 RMK A01 T03450228  RH  051%=      5-min Rain = 0
KMD1 192147Z 22010KT 35/23 A2979 RMK A01 T03450226  RH  050%=      5-min Rain = 0
KMD1 192148Z 22008KT 35/23 A2979 RMK A01 T03450225  RH  050%=      5-min Rain = 0
KMD1 192149Z 21008KT 35/23 A2979 RMK A01 T03460227  RH  050%=      5-min Rain = 0
KMD1 192150Z 22007KT 35/23 A2979 RMK A01 T03480227  RH  049%=      5-min Rain = 0
KMD1 192151Z 21007KT 35/23 A2979 RMK A01 T03490229  RH  050%=      5-min Rain = 0
KMD1 192152Z 23009KT 35/22 A2979 RMK A01 T03490223  RH  048%=      5-min Rain = 0
KMD1 192153Z 21009KT 35/23 A2979 RMK A01 T03500229  RH  050%=      5-min Rain = 0
KMD1 192154Z 20011KT 35/23 A2979 RMK A01 T03490225  RH  049%=      5-min Rain = 0
KMD1 192155Z 21007KT 35/23 A2979 RMK A01 T03490232  RH  051%=      5-min Rain = 0
KMD1 192156Z 20010KT 35/23 A2979 RMK A01 T03470233  RH  052%=      5-min Rain = 0
KMD1 192157Z 21008KT 35/23 A2979 RMK A01 T03460232  RH  052%=      5-min Rain = 0
KMD1 192158Z 20008KT 35/24 A2979 RMK A01 T03460235  RH  053%=      5-min Rain = 0
KMD1 192159Z 20009KT 34/23 A2979 RMK A01 T03440232  RH  052%=      5-min Rain = 0
KMD1 192200Z 21007KT 34/23 A2979 RMK A01 T03410234  RH  054%=      5-min Rain = 0
KMD1 192201Z 20008KT 34/23 A2979 RMK A01 T03390234  RH  054%=      5-min Rain = 0
KMD1 192202Z 20009KT 34/23 A2979 RMK A01 T03400228  RH  052%=      5-min Rain = 0
KMD1 192203Z 20010KT 34/23 A2979 RMK A01 T03420229  RH  052%=      5-min Rain = 0
KMD1 192204Z 20010KT 34/23 A2979 RMK A01 T03440232  RH  052%=      5-min Rain = 0
KMD1 192205Z 20012KT 34/23 A2978 RMK A01 T03440230  RH  052%=      5-min Rain = 0
KMD1 192206Z 21010KT 34/22 A2979 RMK A01 T03440223  RH  049%=      5-min Rain = 0
KMD1 192207Z 22010KT 35/22 A2979 RMK A01 T03450219  RH  048%=      5-min Rain = 0
KMD1 192208Z 21008KT 35/22 A2978 RMK A01 T03460218  RH  047%=      5-min Rain = 0
KMD1 192209Z 22007KT 35/22 A2978 RMK A01 T03470221  RH  048%=      5-min Rain = 0
KMD1 192210Z 23006KT 35/23 A2978 RMK A01 T03470232  RH  051%=      5-min Rain = 0
KMD1 192211Z 21006KT 35/23 A2978 RMK A01 T03450225  RH  050%=      5-min Rain = 0
KMD1 192212Z 20008G13KT 34/23 A2978 RMK A01 T03440228  RH  051%=      5-min Rain = 0
KMD1 192213Z 21011KT 34/23 A2978 RMK A01 T03440228  RH  051%=      5-min Rain = 0
KMD1 192214Z 21011KT 34/23 A2978 RMK A01 T03420228  RH  052%=      5-min Rain = 0
KMD1 192215Z 20011KT 34/23 A2978 RMK A01 T03380228  RH  052%=      5-min Rain = 0
KMD1 192216Z 20009KT 34/23 A2978 RMK A01 T03370229  RH  053%=      5-min Rain = 0
KMD1 192217Z 21008KT 34/23 A2978 RMK A01 T03380232  RH  054%=      5-min Rain = 0
KMD1 192218Z 21008KT 34/23 A2978 RMK A01 T03390227  RH  052%=      5-min Rain = 0
KMD1 192219Z 19006KT 34/23 A2978 RMK A01 T03400227  RH  052%=      5-min Rain = 0
KMD1 192220Z 19008KT 34/23 A2978 RMK A01 T03400230  RH  053%=      5-min Rain = 0
KMD1 192221Z 19009KT 34/23 A2978 RMK A01 T03390228  RH  053%=      5-min Rain = 0
KMD1 192222Z 21009KT 34/23 A2978 RMK A01 T03390231  RH  053%=      5-min Rain = 0
KMD1 192223Z 21009KT 34/23 A2978 RMK A01 T03400228  RH  052%=      5-min Rain = 0
KMD1 192224Z 20009KT 34/23 A2978 RMK A01 T03410228  RH  052%=      5-min Rain = 0
KMD1 192225Z 21014G21KT 34/22 A2978 RMK A01 T03420222  RH  050%=      5-min Rain = 0
KMD1 192226Z 23010KT 34/23 A2978 RMK A01 T03430225  RH  050%=      5-min Rain = 0
KMD1 192227Z 21008KT 35/23 A2978 RMK A01 T03450226  RH  050%=      5-min Rain = 0
KMD1 192228Z 21009KT 35/22 A2978 RMK A01 T03460222  RH  049%=      5-min Rain = 0
KMD1 192229Z 20010KT 35/22 A2978 RMK A01 T03460224  RH  049%=      5-min Rain = 0
KMD1 192230Z 21008G13KT 35/22 A2978 RMK A01 T03460223  RH  049%=      5-min Rain = 0
KMD1 192231Z 20009KT 35/22 A2978 RMK A01 T03460219  RH  048%=      5-min Rain = 0
KMD1 192232Z 20008KT 35/23 A2978 RMK A01 T03460225  RH  050%=      5-min Rain = 0
KMD1 192233Z 20008KT 35/23 A2978 RMK A01 T03460226  RH  050%=      5-min Rain = 0
KMD1 192234Z 21008KT 35/22 A2977 RMK A01 T03450224  RH  049%=      5-min Rain = 0
KMD1 192235Z 21009KT 35/22 A2977 RMK A01 T03460223  RH  049%=      5-min Rain = 0
KMD1 192236Z 20006KT 35/23 A2977 RMK A01 T03460228  RH  050%=      5-min Rain = 0
KMD1 192237Z 19010KT 35/23 A2977 RMK A01 T03460227  RH  050%=      5-min Rain = 0
KMD1 192238Z 18012KT 35/22 A2977 RMK A01 T03450218  RH  048%=      5-min Rain = 0
KMD1 192239Z 19012KT 34/22 A2977 RMK A01 T03440219  RH  048%=      5-min Rain = 0
KMD1 192240Z 20011G17KT 34/22 A2977 RMK A01 T03430218  RH  048%=      5-min Rain = 0
KMD1 192241Z 21011KT 34/22 A2977 RMK A01 T03440222  RH  049%=      5-min Rain = 0
KMD1 192242Z 21010KT 34/22 A2977 RMK A01 T03420216  RH  048%=      5-min Rain = 0
KMD1 192243Z 21008KT 34/22 A2977 RMK A01 T03440223  RH  049%=      5-min Rain = 0
KMD1 192244Z 21010KT 34/22 A2977 RMK A01 T03440219  RH  048%=      5-min Rain = 0
KMD1 192245Z 21010KT 35/22 A2977 RMK A01 T03450219  RH  048%=      5-min Rain = 0
KMD1 192246Z 20011KT 35/22 A2977 RMK A01 T03450221  RH  049%=      5-min Rain = 0
KMD1 192247Z 20009G15KT 34/23 A2977 RMK A01 T03440225  RH  050%=      5-min Rain = 0
KMD1 192248Z 20014KT 34/22 A2977 RMK A01 T03430222  RH  049%=      5-min Rain = 0
KMD1 192249Z 20011KT 34/22 A2977 RMK A01 T03420224  RH  050%=      5-min Rain = 0
KMD1 192250Z 21012KT 34/22 A2977 RMK A01 T03420218  RH  048%=      5-min Rain = 0
KMD1 192251Z 20013KT 34/22 A2977 RMK A01 T03430218  RH  048%=      5-min Rain = 0
KMD1 192252Z 20011KT 34/22 A2977 RMK A01 T03430215  RH  047%=      5-min Rain = 0
KMD1 192253Z 20009KT 34/22 A2977 RMK A01 T03430220  RH  049%=      5-min Rain = 0
KMD1 192254Z 21008KT 34/23 A2977 RMK A01 T03430225  RH  050%=      5-min Rain = 0
KMD1 192255Z 21009KT 34/22 A2977 RMK A01 T03430218  RH  048%=      5-min Rain = 0
KMD1 192256Z 20010KT 34/22 A2977 RMK A01 T03440221  RH  049%=      5-min Rain = 0
KMD1 192257Z 21008KT 34/22 A2977 RMK A01 T03440215  RH  047%=      5-min Rain = 0
KMD1 192258Z 22008KT 34/22 A2977 RMK A01 T03440216  RH  047%=      5-min Rain = 0
KMD1 192259Z 22007KT 35/22 A2977 RMK A01 T03450220  RH  048%=      5-min Rain = 0
KMD1 192300Z 23009KT 35/22 A2977 RMK A01 T03460221  RH  048%=      5-min Rain = 0
KMD1 192301Z 22006KT 35/22 A2977 RMK A01 T03470221  RH  048%=      5-min Rain = 0
KMD1 192302Z 22010G15KT 35/22 A2977 RMK A01 T03470221  RH  048%=      5-min Rain = 0
KMD1 192303Z 22010KT 35/22 A2977 RMK A01 T03480219  RH  047%=      5-min Rain = 0
KMD1 192304Z 22013KT 35/21 A2977 RMK A01 T03470210  RH  045%=      5-min Rain = 0
KMD1 192305Z 23009KT 35/21 A2976 RMK A01 T03460212  RH  046%=      5-min Rain = 0
KMD1 192306Z 22008KT 35/22 A2976 RMK A01 T03450215  RH  047%=      5-min Rain = 0
KMD1 192307Z 23009KT 34/22 A2976 RMK A01 T03440215  RH  047%=      5-min Rain = 0
KMD1 192308Z 23009KT 34/22 A2976 RMK A01 T03440219  RH  048%=      5-min Rain = 0
KMD1 192309Z 23008KT 34/22 A2976 RMK A01 T03430217  RH  048%=      5-min Rain = 0
KMD1 192310Z 23007KT 34/22 A2976 RMK A01 T03430217  RH  048%=      5-min Rain = 0
KMD1 192311Z 22008KT 34/21 A2976 RMK A01 T03430212  RH  046%=      5-min Rain = 0
KMD1 192312Z 20008KT 35/21 A2976 RMK A01 T03450214  RH  047%=      5-min Rain = 0
KMD1 192313Z 20010KT 34/22 A2976 RMK A01 T03440216  RH  047%=      5-min Rain = 0
KMD1 192314Z 20010KT 34/22 A2976 RMK A01 T03440217  RH  048%=      5-min Rain = 0
KMD1 192315Z 20009KT 34/22 A2976 RMK A01 T03420220  RH  049%=      5-min Rain = 0
KMD1 192316Z 20009KT 34/21 A2976 RMK A01 T03400214  RH  048%=      5-min Rain = 0
KMD1 192317Z 20008KT 34/21 A2976 RMK A01 T03400213  RH  047%=      5-min Rain = 0
KMD1 192318Z 20010KT 34/21 A2976 RMK A01 T03410212  RH  047%=      5-min Rain = 0
KMD1 192319Z 22008KT 34/21 A2976 RMK A01 T03420212  RH  047%=      5-min Rain = 0
KMD1 192320Z 23008KT 34/21 A2976 RMK A01 T03420211  RH  047%=      5-min Rain = 0
KMD1 192321Z 23009G14KT 34/21 A2976 RMK A01 T03420209  RH  046%=      5-min Rain = 0
KMD1 192322Z 21009KT 34/20 A2976 RMK A01 T03430204  RH  044%=      5-min Rain = 0
KMD1 192323Z 22009KT 34/21 A2976 RMK A01 T03430208  RH  045%=      5-min Rain = 0
KMD1 192324Z 21008KT 34/21 A2976 RMK A01 T03430210  RH  046%=      5-min Rain = 0
KMD1 192325Z 21008KT 34/20 A2976 RMK A01 T03420204  RH  045%=      5-min Rain = 0
KMD1 192326Z 22009KT 34/21 A2976 RMK A01 T03410205  RH  045%=      5-min Rain = 0
KMD1 192327Z 21010KT 34/20 A2976 RMK A01 T03410199  RH  043%=      5-min Rain = 0
KMD1 192328Z 22008KT 34/20 A2976 RMK A01 T03420203  RH  044%=      5-min Rain = 0
KMD1 192329Z 22009KT 34/21 A2976 RMK A01 T03420207  RH  045%=      5-min Rain = 0
KMD1 192330Z 22009KT 34/21 A2976 RMK A01 T03420206  RH  045%=      5-min Rain = 0
KMD1 192331Z 23007KT 34/21 A2976 RMK A01 T03410208  RH  046%=      5-min Rain = 0
KMD1 192332Z 22007KT 34/21 A2976 RMK A01 T03410210  RH  046%=      5-min Rain = 0
KMD1 192333Z 22008KT 34/20 A2976 RMK A01 T03420203  RH  044%=      5-min Rain = 0
KMD1 192334Z 21006KT 34/20 A2976 RMK A01 T03430204  RH  044%=      5-min Rain = 0
KMD1 192335Z 22008KT 34/21 A2976 RMK A01 T03440206  RH  045%=      5-min Rain = 0
KMD1 192336Z 22006KT 34/21 A2976 RMK A01 T03440207  RH  045%=      5-min Rain = 0
KMD1 192337Z 22009G15KT 34/21 A2976 RMK A01 T03440207  RH  045%=      5-min Rain = 0
KMD1 192338Z 22009KT 34/21 A2976 RMK A01 T03440208  RH  045%=      5-min Rain = 0
KMD1 192339Z 22011KT 34/21 A2976 RMK A01 T03430207  RH  045%=      5-min Rain = 0
KMD1 192340Z 22012KT 34/20 A2976 RMK A01 T03420203  RH  044%=      5-min Rain = 0
KMD1 192341Z 23008KT 34/21 A2976 RMK A01 T03420206  RH  045%=      5-min Rain = 0
KMD1 192342Z 22009KT 34/21 A2976 RMK A01 T03420207  RH  045%=      5-min Rain = 0
KMD1 192343Z 22008G13KT 34/21 A2976 RMK A01 T03420209  RH  046%=      5-min Rain = 0
KMD1 192344Z 21009KT 34/21 A2976 RMK A01 T03420210  RH  046%=      5-min Rain = 0
KMD1 192345Z 21010KT 34/21 A2976 RMK A01 T03420209  RH  046%=      5-min Rain = 0
KMD1 192346Z 21010KT 34/21 A2976 RMK A01 T03410206  RH  045%=      5-min Rain = 0
KMD1 192347Z 20009KT 34/20 A2976 RMK A01 T03410204  RH  045%=      5-min Rain = 0
KMD1 192348Z 21011KT 34/20 A2975 RMK A01 T03420203  RH  044%=      5-min Rain = 0
KMD1 192349Z 21007KT 34/21 A2975 RMK A01 T03420209  RH  046%=      5-min Rain = 0
KMD1 192350Z 21008KT 34/21 A2975 RMK A01 T03410206  RH  045%=      5-min Rain = 0
KMD1 192351Z 20010KT 34/21 A2975 RMK A01 T03410209  RH  046%=      5-min Rain = 0
KMD1 192352Z 21010KT 34/21 A2975 RMK A01 T03410205  RH  045%=      5-min Rain = 0
KMD1 192353Z 22009KT 34/21 A2975 RMK A01 T03410207  RH  045%=      5-min Rain = 0
KMD1 192354Z 22009KT 34/21 A2975 RMK A01 T03410206  RH  045%=      5-min Rain = 0
KMD1 192355Z 21008KT 34/21 A2975 RMK A01 T03410207  RH  045%=      5-min Rain = 0
KMD1 192356Z 20007KT 34/21 A2975 RMK A01 T03420210  RH  046%=      5-min Rain = 0
KMD1 192357Z 20008KT 34/21 A2975 RMK A01 T03410208  RH  046%=      5-min Rain = 0
KMD1 192358Z 20008KT 34/21 A2975 RMK A01 T03410212  RH  047%=      5-min Rain = 0
KMD1 192359Z 21010KT 34/21 A2975 RMK A01 T03400209  RH  046%=      5-min Rain = 0
KMD1 200000Z 20009KT 34/21 A2975 RMK A01 T03400210  RH  047%=      5-min Rain = 0
KMD1 200001Z 20007KT 34/21 A2975 RMK A01 T03390211  RH  047%=      5-min Rain = 0
KMD1 200002Z 22006KT 34/21 A2975 RMK A01 T03390214  RH  048%=      5-min Rain = 0
KMD1 200003Z 22007KT 34/22 A2975 RMK A01 T03380216  RH  049%=      5-min Rain = 0
KMD1 200004Z 21011G16KT 34/21 A2975 RMK A01 T03380211  RH  047%=      5-min Rain = 0
KMD1 200005Z 22011KT 34/21 A2975 RMK A01 T03390209  RH  047%=      5-min Rain = 0
KMD1 200006Z 22010KT 34/21 A2975 RMK A01 T03390207  RH  046%=      5-min Rain = 0
KMD1 200007Z 22009KT 34/21 A2975 RMK A01 T03390208  RH  046%=      5-min Rain = 0
KMD1 200008Z 21007KT 34/21 A2975 RMK A01 T03390209  RH  047%=      5-min Rain = 0
KMD1 200009Z 21007KT 34/21 A2975 RMK A01 T03390214  RH  048%=      5-min Rain = 0
KMD1 200010Z 21006KT 34/22 A2975 RMK A01 T03380216  RH  049%=      5-min Rain = 0
KMD1 200011Z 20007KT 34/22 A2975 RMK A01 T03370215  RH  049%=      5-min Rain = 0
KMD1 200012Z 21011KT 34/20 A2975 RMK A01 T03370204  RH  046%=      5-min Rain = 0
KMD1 200013Z 22010G15KT 34/21 A2975 RMK A01 T03380209  RH  047%=      5-min Rain = 0
KMD1 200014Z 22009KT 34/21 A2975 RMK A01 T03380208  RH  047%=      5-min Rain = 0
KMD1 200015Z 21009KT 34/21 A2975 RMK A01 T03370208  RH  047%=      5-min Rain = 0
KMD1 200016Z 21008KT 34/21 A2975 RMK A01 T03370207  RH  046%=      5-min Rain = 0
KMD1 200017Z 20008KT 34/21 A2975 RMK A01 T03380207  RH  046%=      5-min Rain = 0
KMD1 200018Z 21011KT 34/21 A2975 RMK A01 T03380205  RH  046%=      5-min Rain = 0
KMD1 200019Z 20008KT 34/21 A2975 RMK A01 T03380205  RH  046%=      5-min Rain = 0
KMD1 200020Z 20009G14KT 34/21 A2975 RMK A01 T03370208  RH  047%=      5-min Rain = 0
KMD1 200021Z 20009KT 34/21 A2975 RMK A01 T03370205  RH  046%=      5-min Rain = 0
KMD1 200022Z 20010KT 34/21 A2975 RMK A01 T03360206  RH  046%=      5-min Rain = 0
KMD1 200023Z 20008KT 34/21 A2975 RMK A01 T03360209  RH  047%=      5-min Rain = 0
KMD1 200024Z 20009KT 33/21 A2975 RMK A01 T03340209  RH  048%=      5-min Rain = 0
KMD1 200025Z 20008KT 33/21 A2975 RMK A01 T03340208  RH  048%=      5-min Rain = 0
KMD1 200026Z 20009KT 33/21 A2975 RMK A01 T03320208  RH  048%=      5-min Rain = 0
KMD1 200027Z 20008KT 33/21 A2975 RMK A01 T03310208  RH  048%=      5-min Rain = 0
KMD1 200028Z 20007KT 33/21 A2975 RMK A01 T03310208  RH  048%=      5-min Rain = 0
KMD1 200029Z 20006KT 33/21 A2975 RMK A01 T03310210  RH  049%=      5-min Rain = 0
KMD1 200030Z 20006KT 33/21 A2975 RMK A01 T03300211  RH  050%=      5-min Rain = 0
KMD1 200031Z 20005KT 33/21 A2975 RMK A01 T03290213  RH  051%=      5-min Rain = 0
KMD1 200032Z 20005KT 33/21 A2975 RMK A01 T03290212  RH  050%=      5-min Rain = 0
KMD1 200033Z 21005KT 33/21 A2975 RMK A01 T03290213  RH  051%=      5-min Rain = 0
KMD1 200034Z 20007KT 33/21 A2975 RMK A01 T03290211  RH  050%=      5-min Rain = 0
KMD1 200035Z 20007KT 33/21 A2975 RMK A01 T03290214  RH  051%=      5-min Rain = 0
KMD1 200036Z 20006KT 33/21 A2975 RMK A01 T03290213  RH  051%=      5-min Rain = 0
KMD1 200037Z 20007KT 33/21 A2975 RMK A01 T03290212  RH  050%=      5-min Rain = 0
KMD1 200038Z 20007KT 33/21 A2975 RMK A01 T03290211  RH  050%=      5-min Rain = 0
KMD1 200039Z 21007KT 33/21 A2975 RMK A01 T03300212  RH  050%=      5-min Rain = 0
KMD1 200040Z 20007KT 33/21 A2975 RMK A01 T03300211  RH  050%=      5-min Rain = 0
KMD1 200041Z 20009KT 33/21 A2975 RMK A01 T03300212  RH  050%=      5-min Rain = 0
KMD1 200042Z 21008KT 33/21 A2975 RMK A01 T03300212  RH  050%=      5-min Rain = 0
KMD1 200043Z 20007KT 33/21 A2975 RMK A01 T03300211  RH  050%=      5-min Rain = 0
KMD1 200044Z 20008KT 33/21 A2975 RMK A01 T03300213  RH  050%=      5-min Rain = 0
KMD1 200045Z 20008KT 33/21 A2975 RMK A01 T03290211  RH  050%=      5-min Rain = 0
KMD1 200046Z 21008KT 33/21 A2975 RMK A01 T03290212  RH  050%=      5-min Rain = 0
KMD1 200047Z 20008KT 33/21 A2975 RMK A01 T03270212  RH  051%=      5-min Rain = 0
KMD1 200048Z 20006KT 33/21 A2975 RMK A01 T03270210  RH  050%=      5-min Rain = 0
KMD1 200049Z 21008KT 33/21 A2975 RMK A01 T03270212  RH  051%=      5-min Rain = 0
KMD1 200050Z 20006KT 33/21 A2975 RMK A01 T03270211  RH  051%=      5-min Rain = 0
KMD1 200051Z 21007KT 33/21 A2975 RMK A01 T03270212  RH  051%=      5-min Rain = 0
KMD1 200052Z 20006KT 33/21 A2975 RMK A01 T03250212  RH  051%=      5-min Rain = 0
KMD1 200053Z 21008KT 32/21 A2975 RMK A01 T03240212  RH  052%=      5-min Rain = 0
KMD1 200054Z 20007KT 32/21 A2975 RMK A01 T03240211  RH  051%=      5-min Rain = 0
KMD1 200055Z 20006KT 32/21 A2975 RMK A01 T03230212  RH  052%=      5-min Rain = 0
KMD1 200056Z 21007KT 32/21 A2975 RMK A01 T03220211  RH  052%=      5-min Rain = 0
KMD1 200057Z 21006KT 32/21 A2975 RMK A01 T03210210  RH  052%=      5-min Rain = 0
KMD1 200058Z 21006KT 32/21 A2975 RMK A01 T03210209  RH  052%=      5-min Rain = 0
KMD1 200059Z 21006KT 32/21 A2975 RMK A01 T03220211  RH  052%=      5-min Rain = 0
KMD1 200100Z 21006KT 32/21 A2975 RMK A01 T03210211  RH  052%=      5-min Rain = 0
KMD1 200101Z 20006KT 32/21 A2975 RMK A01 T03210211  RH  052%=      5-min Rain = 0
KMD1 200102Z 20007KT 32/21 A2975 RMK A01 T03200210  RH  052%=      5-min Rain = 0
KMD1 200103Z 21006KT 32/21 A2975 RMK A01 T03200209  RH  052%=      5-min Rain = 0
KMD1 200104Z 20007KT 32/21 A2975 RMK A01 T03200209  RH  052%=      5-min Rain = 0
KMD1 200105Z 20007KT 32/21 A2975 RMK A01 T03210209  RH  052%=      5-min Rain = 0
KMD1 200106Z 20006KT 32/21 A2975 RMK A01 T03200209  RH  052%=      5-min Rain = 0
KMD1 200107Z 20007KT 32/21 A2975 RMK A01 T03200210  RH  052%=      5-min Rain = 0
KMD1 200108Z 20007KT 32/21 A2975 RMK A01 T03200210  RH  052%=      5-min Rain = 0
KMD1 200109Z 20006KT 32/21 A2975 RMK A01 T03200210  RH  052%=      5-min Rain = 0
KMD1 200110Z 20006KT 32/21 A2975 RMK A01 T03190209  RH  052%=      5-min Rain = 0
KMD1 200111Z 21005KT 32/21 A2975 RMK A01 T03190212  RH  053%=      5-min Rain = 0
KMD1 200112Z 21006KT 32/21 A2975 RMK A01 T03180211  RH  053%=      5-min Rain = 0
KMD1 200113Z 21005KT 32/21 A2975 RMK A01 T03170211  RH  053%=      5-min Rain = 0
KMD1 200114Z 21005KT 32/21 A2975 RMK A01 T03170211  RH  053%=      5-min Rain = 0
KMD1 200115Z 21005KT 32/21 A2975 RMK A01 T03170211  RH  054%=      5-min Rain = 0
KMD1 200116Z 20006KT 32/21 A2975 RMK A01 T03160210  RH  053%=      5-min Rain = 0
KMD1 200117Z 20006KT 32/21 A2975 RMK A01 T03160211  RH  054%=      5-min Rain = 0
KMD1 200118Z 20005KT 32/21 A2975 RMK A01 T03150212  RH  054%=      5-min Rain = 0
KMD1 200119Z 21006KT 31/21 A2975 RMK A01 T03140210  RH  054%=      5-min Rain = 0
KMD1 200120Z 21006KT 31/21 A2975 RMK A01 T03140209  RH  054%=      5-min Rain = 0
KMD1 200121Z 20005KT 31/21 A2975 RMK A01 T03140210  RH  054%=      5-min Rain = 0
KMD1 200122Z 20007KT 31/21 A2975 RMK A01 T03140210  RH  054%=      5-min Rain = 0
KMD1 200123Z 21007KT 31/21 A2975 RMK A01 T03140209  RH  054%=      5-min Rain = 0
KMD1 200124Z 21005KT 31/21 A2975 RMK A01 T03140209  RH  054%=      5-min Rain = 0
KMD1 200125Z 20007KT 31/21 A2975 RMK A01 T03130210  RH  054%=      5-min Rain = 0
KMD1 200126Z 20006KT 31/21 A2975 RMK A01 T03130210  RH  054%=      5-min Rain = 0
KMD1 200127Z 20006KT 31/21 A2975 RMK A01 T03130210  RH  054%=      5-min Rain = 0
KMD1 200128Z 20005KT 31/21 A2975 RMK A01 T03120211  RH  055%=      5-min Rain = 0
KMD1 200129Z 20006KT 31/21 A2975 RMK A01 T03110210  RH  055%=      5-min Rain = 0
KMD1 200130Z 20006KT 31/21 A2975 RMK A01 T03110211  RH  056%=      5-min Rain = 0
KMD1 200131Z 20005KT 31/21 A2975 RMK A01 T03100210  RH  056%=      5-min Rain = 0
KMD1 200132Z 20005KT 31/21 A2975 RMK A01 T03100210  RH  055%=      5-min Rain = 0
KMD1 200133Z 20006KT 31/21 A2975 RMK A01 T03090210  RH  056%=      5-min Rain = 0
KMD1 200134Z 20005KT 31/21 A2975 RMK A01 T03090210  RH  055%=      5-min Rain = 0
KMD1 200135Z 20005KT 31/21 A2975 RMK A01 T03100210  RH  056%=      5-min Rain = 0
KMD1 200136Z 20004KT 31/21 A2975 RMK A01 T03090212  RH  056%=      5-min Rain = 0
KMD1 200137Z 20005KT 31/21 A2975 RMK A01 T03080211  RH  056%=      5-min Rain = 0
KMD1 200138Z 20005KT 31/21 A2975 RMK A01 T03070211  RH  056%=      5-min Rain = 0
KMD1 200139Z 19005KT 31/21 A2975 RMK A01 T03070212  RH  057%=      5-min Rain = 0
KMD1 200140Z 20005KT 31/21 A2975 RMK A01 T03060212  RH  057%=      5-min Rain = 0
KMD1 200141Z 19004KT 31/21 A2975 RMK A01 T03050212  RH  058%=      5-min Rain = 0
KMD1 200142Z 19005KT 30/21 A2975 RMK A01 T03040213  RH  058%=      5-min Rain = 0
KMD1 200143Z 20005KT 30/21 A2975 RMK A01 T03030212  RH  058%=      5-min Rain = 0
KMD1 200144Z 20005KT 30/21 A2975 RMK A01 T03030211  RH  058%=      5-min Rain = 0
KMD1 200145Z 20004KT 30/21 A2976 RMK A01 T03030210  RH  058%=      5-min Rain = 0
KMD1 200146Z 19004KT 30/21 A2976 RMK A01 T03030211  RH  058%=      5-min Rain = 0
KMD1 200147Z 20004KT 30/21 A2976 RMK A01 T03030214  RH  059%=      5-min Rain = 0
KMD1 200148Z 20004KT 30/21 A2976 RMK A01 T03010212  RH  059%=      5-min Rain = 0
KMD1 200149Z 19004KT 30/21 A2976 RMK A01 T03010211  RH  059%=      5-min Rain = 0
KMD1 200150Z 19003KT 30/21 A2976 RMK A01 T03010210  RH  058%=      5-min Rain = 0
KMD1 200151Z 20004KT 30/21 A2976 RMK A01 T03010211  RH  059%=      5-min Rain = 0
KMD1 200152Z 20004KT 30/21 A2976 RMK A01 T03010210  RH  058%=      5-min Rain = 0
KMD1 200153Z 20003KT 30/21 A2976 RMK A01 T03010211  RH  058%=      5-min Rain = 0
KMD1 200154Z 20003KT 30/21 A2976 RMK A01 T03020211  RH  058%=      5-min Rain = 0
KMD1 200155Z 20003KT 30/21 A2976 RMK A01 T03020212  RH  058%=      5-min Rain = 0
KMD1 200156Z 20002KT 30/21 A2976 RMK A01 T03010212  RH  059%=      5-min Rain = 0
KMD1 200157Z 20002KT 30/21 A2976 RMK A01 T03010212  RH  059%=      5-min Rain = 0
KMD1 200158Z 21002KT 30/21 A2976 RMK A01 T03010212  RH  059%=      5-min Rain = 0
KMD1 200159Z 20002KT 30/21 A2976 RMK A01 T03000214  RH  060%=      5-min Rain = 0
KMD1 200200Z 20002KT 30/21 A2976 RMK A01 T02990213  RH  060%=      5-min Rain = 0
KMD1 200201Z 21002KT 30/21 A2976 RMK A01 T02980213  RH  060%=      5-min Rain = 0
KMD1 200202Z 21003KT 30/21 A2976 RMK A01 T02980212  RH  060%=      5-min Rain = 0
KMD1 200203Z 21002KT 30/21 A2976 RMK A01 T02990212  RH  060%=      5-min Rain = 0
KMD1 200204Z 19002KT 30/21 A2975 RMK A01 T02990212  RH  060%=      5-min Rain = 0
KMD1 200205Z 20004KT 30/21 A2975 RMK A01 T03000213  RH  060%=      5-min Rain = 0
KMD1 200206Z 20003KT 30/21 A2975 RMK A01 T03000214  RH  060%=      5-min Rain = 0
KMD1 200207Z 21003KT 30/22 A2975 RMK A01 T03000215  RH  060%=      5-min Rain = 0
KMD1 200208Z 20003KT 30/22 A2975 RMK A01 T03000215  RH  060%=      5-min Rain = 0
KMD1 200209Z 19003KT 30/22 A2975 RMK A01 T03000216  RH  061%=      5-min Rain = 0
KMD1 200210Z 20004KT 30/22 A2975 RMK A01 T02990216  RH  061%=      5-min Rain = 0
KMD1 200211Z 19003KT 30/22 A2975 RMK A01 T02990216  RH  061%=      5-min Rain = 0
KMD1 200212Z 19004KT 30/22 A2975 RMK A01 T02990216  RH  061%=      5-min Rain = 0
KMD1 200213Z 20004KT 30/22 A2976 RMK A01 T02990216  RH  061%=      5-min Rain = 0
KMD1 200214Z 20003KT 30/22 A2976 RMK A01 T02990216  RH  061%=      5-min Rain = 0
KMD1 200215Z 20004KT 30/22 A2976 RMK A01 T02990216  RH  061%=      5-min Rain = 0
KMD1 200216Z 20003KT 30/22 A2976 RMK A01 T02990215  RH  061%=      5-min Rain = 0
KMD1 200217Z 20003KT 30/22 A2976 RMK A01 T03000216  RH  061%=      5-min Rain = 0
KMD1 200218Z 20003KT 30/22 A2976 RMK A01 T03000217  RH  061%=      5-min Rain = 0
KMD1 200219Z 20002KT 30/22 A2976 RMK A01 T02990218  RH  062%=      5-min Rain = 0
KMD1 200220Z 20003KT 30/22 A2976 RMK A01 T02980217  RH  062%=      5-min Rain = 0
KMD1 200221Z 20002KT 30/22 A2976 RMK A01 T02980218  RH  062%=      5-min Rain = 0
KMD1 200222Z 20002KT 30/22 A2976 RMK A01 T02970218  RH  063%=      5-min Rain = 0
KMD1 200223Z 20002KT 30/22 A2976 RMK A01 T02960217  RH  063%=      5-min Rain = 0
KMD1 200224Z 20002KT 30/22 A2976 RMK A01 T02950217  RH  063%=      5-min Rain = 0
KMD1 200225Z 20003KT 30/22 A2976 RMK A01 T02950217  RH  063%=      5-min Rain = 0
KMD1 200226Z 20003KT 29/22 A2976 RMK A01 T02940217  RH  063%=      5-min Rain = 0
KMD1 200227Z 20003KT 29/22 A2976 RMK A01 T02940217  RH  063%=      5-min Rain = 0
KMD1 200228Z 20003KT 29/22 A2976 RMK A01 T02940216  RH  063%=      5-min Rain = 0
KMD1 200229Z 20004KT 29/22 A2976 RMK A01 T02940216  RH  063%=      5-min Rain = 0
KMD1 200230Z 20003KT 29/22 A2975 RMK A01 T02940215  RH  063%=      5-min Rain = 0
KMD1 200231Z 20004KT 29/22 A2975 RMK A01 T02940216  RH  063%=      5-min Rain = 0
KMD1 200232Z 20004KT 29/22 A2975 RMK A01 T02940217  RH  063%=      5-min Rain = 0
KMD1 200233Z 21003KT 29/22 A2975 RMK A01 T02930216  RH  063%=      5-min Rain = 0
KMD1 200234Z 20004KT 29/22 A2975 RMK A01 T02930216  RH  063%=      5-min Rain = 0
KMD1 200235Z 21003KT 29/22 A2976 RMK A01 T02920215  RH  063%=      5-min Rain = 0
KMD1 200236Z 20003KT 29/22 A2975 RMK A01 T02930215  RH  063%=      5-min Rain = 0
KMD1 200237Z 20003KT 29/21 A2975 RMK A01 T02930214  RH  063%=      5-min Rain = 0
KMD1 200238Z 20003KT 29/21 A2975 RMK A01 T02930214  RH  062%=      5-min Rain = 0
KMD1 200239Z 20003KT 29/21 A2975 RMK A01 T02930214  RH  062%=      5-min Rain = 0
KMD1 200240Z 21003KT 29/21 A2976 RMK A01 T02940214  RH  062%=      5-min Rain = 0
KMD1 200241Z 21003KT 29/22 A2976 RMK A01 T02940215  RH  062%=      5-min Rain = 0
KMD1 200242Z 21003KT 29/21 A2976 RMK A01 T02940214  RH  062%=      5-min Rain = 0
KMD1 200243Z 22003KT 29/21 A2976 RMK A01 T02940214  RH  062%=      5-min Rain = 0
KMD1 200244Z 21003KT 29/21 A2976 RMK A01 T02940214  RH  062%=      5-min Rain = 0
KMD1 200245Z 20003KT 29/21 A2976 RMK A01 T02930214  RH  062%=      5-min Rain = 0
KMD1 200246Z 19003KT 29/21 A2976 RMK A01 T02930214  RH  063%=      5-min Rain = 0
KMD1 200247Z 21003KT 29/21 A2976 RMK A01 T02930214  RH  063%=      5-min Rain = 0
KMD1 200248Z 20003KT 29/21 A2976 RMK A01 T02920213  RH  062%=      5-min Rain = 0
KMD1 200249Z 18003KT 29/21 A2976 RMK A01 T02920212  RH  062%=      5-min Rain = 0
KMD1 200250Z 21003KT 29/21 A2976 RMK A01 T02920213  RH  063%=      5-min Rain = 0
KMD1 200251Z 21002KT 29/21 A2976 RMK A01 T02920214  RH  063%=      5-min Rain = 0
KMD1 200252Z 21002KT 29/21 A2976 RMK A01 T02910213  RH  063%=      5-min Rain = 0
KMD1 200253Z 20003KT 29/21 A2976 RMK A01 T02910213  RH  063%=      5-min Rain = 0
KMD1 200254Z 22003KT 29/21 A2976 RMK A01 T02900214  RH  063%=      5-min Rain = 0
KMD1 200255Z 21003KT 29/21 A2976 RMK A01 T02900213  RH  063%=      5-min Rain = 0
KMD1 200256Z 21004KT 29/21 A2976 RMK A01 T02890213  RH  063%=      5-min Rain = 0
KMD1 200257Z 21004KT 29/21 A2976 RMK A01 T02890212  RH  063%=      5-min Rain = 0
KMD1 200258Z 21004KT 29/21 A2976 RMK A01 T02890212  RH  063%=      5-min Rain = 0
KMD1 200259Z 21004KT 29/21 A2976 RMK A01 T02890211  RH  063%=      5-min Rain = 0
KMD1 200300Z 21004KT 29/21 A2976 RMK A01 T02890211  RH  063%=      5-min Rain = 0
KMD1 200301Z 21003KT 29/21 A2976 RMK A01 T02890212  RH  063%=      5-min Rain = 0
KMD1 200302Z 22003KT 29/21 A2976 RMK A01 T02890211  RH  063%=      5-min Rain = 0
KMD1 200303Z 20003KT 29/21 A2977 RMK A01 T02890210  RH  062%=      5-min Rain = 0
KMD1 200304Z 19002KT 29/21 A2977 RMK A01 T02900211  RH  062%=      5-min Rain = 0
KMD1 200305Z 19003KT 29/21 A2977 RMK A01 T02900212  RH  063%=      5-min Rain = 0
KMD1 200306Z 18004KT 29/21 A2977 RMK A01 T02900213  RH  063%=      5-min Rain = 0
KMD1 200307Z 18003KT 29/21 A2977 RMK A01 T02880213  RH  064%=      5-min Rain = 0
KMD1 200308Z 18003KT 29/21 A2977 RMK A01 T02870212  RH  064%=      5-min Rain = 0
KMD1 200309Z 20002KT 29/21 A2977 RMK A01 T02860211  RH  064%=      5-min Rain = 0
KMD1 200310Z 22001KT 29/21 A2977 RMK A01 T02860211  RH  064%=      5-min Rain = 0
KMD1 200311Z 18001KT 29/21 A2977 RMK A01 T02860212  RH  064%=      5-min Rain = 0
KMD1 200312Z 14001KT 29/21 A2977 RMK A01 T02850212  RH  065%=      5-min Rain = 0
KMD1 200313Z 15001KT 28/21 A2978 RMK A01 T02840212  RH  065%=      5-min Rain = 0
KMD1 200314Z 17001KT 28/21 A2978 RMK A01 T02830212  RH  065%=      5-min Rain = 0
KMD1 200315Z 18001KT 28/21 A2978 RMK A01 T02820211  RH  065%=      5-min Rain = 0
KMD1 200316Z 17001KT 28/21 A2978 RMK A01 T02820211  RH  065%=      5-min Rain = 0
KMD1 200317Z 15001KT 28/21 A2978 RMK A01 T02820211  RH  065%=      5-min Rain = 0
KMD1 200318Z 00000KT 28/21 A2978 RMK A01 T02820213  RH  066%=      5-min Rain = 0
KMD1 200319Z 36000KT 28/22 A2978 RMK A01 T02800217  RH  068%=      5-min Rain = 0
KMD1 200320Z 36001KT 28/22 A2978 RMK A01 T02760217  RH  070%=      5-min Rain = 0
KMD1 200321Z 01001KT 27/22 A2978 RMK A01 T02730216  RH  071%=      5-min Rain = 0
KMD1 200322Z 00002KT 27/22 A2978 RMK A01 T02710216  RH  072%=      5-min Rain = 0
KMD1 200323Z 36002KT 27/22 A2978 RMK A01 T02690216  RH  072%=      5-min Rain = 0
KMD1 200324Z 01002KT 27/22 A2978 RMK A01 T02690216  RH  073%=      5-min Rain = 0
KMD1 200325Z 01003KT 27/22 A2978 RMK A01 T02690215  RH  072%=      5-min Rain = 0
KMD1 200326Z 02003KT 27/22 A2978 RMK A01 T02690215  RH  072%=      5-min Rain = 0
KMD1 200327Z 02003KT 27/22 A2978 RMK A01 T02690215  RH  072%=      5-min Rain = 0
KMD1 200328Z 02003KT 27/22 A2979 RMK A01 T02700217  RH  073%=      5-min Rain = 0
KMD1 200329Z 02003KT 27/22 A2979 RMK A01 T02700217  RH  073%=      5-min Rain = 0
KMD1 200330Z 02003KT 27/22 A2979 RMK A01 T02690217  RH  073%=      5-min Rain = 0
KMD1 200331Z 01004KT 27/22 A2979 RMK A01 T02670217  RH  074%=      5-min Rain = 0
KMD1 200332Z 03003KT 27/22 A2979 RMK A01 T02660216  RH  074%=      5-min Rain = 0
KMD1 200333Z 02004KT 27/22 A2979 RMK A01 T02660216  RH  074%=      5-min Rain = 0
KMD1 200334Z 01004KT 27/22 A2979 RMK A01 T02680216  RH  073%=      5-min Rain = 0
KMD1 200335Z 01004KT 27/22 A2979 RMK A01 T02680215  RH  073%=      5-min Rain = 0
KMD1 200336Z 01004KT 27/22 A2979 RMK A01 T02680215  RH  072%=      5-min Rain = 0
KMD1 200337Z 01005KT 27/21 A2979 RMK A01 T02690214  RH  072%=      5-min Rain = 0
KMD1 200338Z 01004KT 27/21 A2979 RMK A01 T02700213  RH  071%=      5-min Rain = 0
KMD1 200339Z 01004KT 27/21 A298 RMK A01 T02710214  RH  071%=      5-min Rain = 0
KMD1 200340Z 01005KT 27/22 A298 RMK A01 T02710215  RH  071%=      5-min Rain = 0
KMD1 200341Z 01005KT 27/22 A298 RMK A01 T02700215  RH  072%=      5-min Rain = 0
KMD1 200342Z 01004KT 27/21 A298 RMK A01 T02700214  RH  071%=      5-min Rain = 0
KMD1 200343Z 01004KT 27/21 A298 RMK A01 T02710214  RH  071%=      5-min Rain = 0
KMD1 200344Z 01005KT 27/21 A298 RMK A01 T02710214  RH  071%=      5-min Rain = 0
KMD1 200345Z 01004KT 27/22 A298 RMK A01 T02710215  RH  072%=      5-min Rain = 0
KMD1 200346Z 36005KT 27/21 A298 RMK A01 T02710214  RH  071%=      5-min Rain = 0
KMD1 200347Z 01005KT 27/22 A298 RMK A01 T02710216  RH  072%=      5-min Rain = 0
KMD1 200348Z 01006KT 27/22 A298 RMK A01 T02700216  RH  072%=      5-min Rain = 0
KMD1 200349Z 00005KT 27/22 A298 RMK A01 T02690216  RH  073%=      5-min Rain = 0
KMD1 200350Z 01005KT 27/22 A298 RMK A01 T02680217  RH  073%=      5-min Rain = 0
KMD1 200351Z 00005KT 27/22 A298 RMK A01 T02660216  RH  074%=      5-min Rain = 0
KMD1 200352Z 01005KT 27/22 A298 RMK A01 T02660216  RH  074%=      5-min Rain = 0
KMD1 200353Z 01005KT 27/22 A2981 RMK A01 T02650217  RH  075%=      5-min Rain = 0
KMD1 200354Z 01005KT 26/22 A2981 RMK A01 T02640217  RH  075%=      5-min Rain = 0
KMD1 200355Z 01005KT 26/22 A2981 RMK A01 T02640216  RH  075%=      5-min Rain = 0
KMD1 200356Z 02004KT 26/22 A2981 RMK A01 T02640216  RH  075%=      5-min Rain = 0
KMD1 200357Z 02003KT 26/22 A2981 RMK A01 T02630216  RH  075%=      5-min Rain = 0
KMD1 200358Z 02003KT 26/22 A2981 RMK A01 T02630216  RH  075%=      5-min Rain = 0
KMD1 200359Z 01003KT 26/22 A2981 RMK A01 T02630216  RH  075%=      5-min Rain = 0
KMD1 200400Z 02002KT 26/22 A2981 RMK A01 T02640216  RH  075%=      5-min Rain = 0
KMD1 200401Z 03003KT 26/22 A2981 RMK A01 T02640216  RH  075%=      5-min Rain = 0
KMD1 200402Z 03003KT 27/22 A2981 RMK A01 T02650216  RH  074%=      5-min Rain = 0
KMD1 200403Z 03003KT 27/22 A2981 RMK A01 T02660216  RH  074%=      5-min Rain = 0
KMD1 200404Z 02003KT 27/22 A2981 RMK A01 T02670216  RH  074%=      5-min Rain = 0
KMD1 200405Z 04004KT 27/22 A2981 RMK A01 T02670217  RH  074%=      5-min Rain = 0
KMD1 200406Z 04004KT 27/22 A2981 RMK A01 T02660217  RH  074%=      5-min Rain = 0
KMD1 200407Z 03004KT 27/22 A2981 RMK A01 T02650217  RH  075%=      5-min Rain = 0
KMD1 200408Z 05002KT 26/22 A2981 RMK A01 T02640217  RH  075%=      5-min Rain = 0
KMD1 200409Z 05004KT 26/22 A2981 RMK A01 T02630217  RH  076%=      5-min Rain = 0
KMD1 200410Z 05004KT 26/22 A2982 RMK A01 T02620217  RH  077%=      5-min Rain = 0
KMD1 200411Z 05005KT 26/22 A2982 RMK A01 T02600218  RH  078%=      5-min Rain = 0
KMD1 200412Z 05006KT 26/22 A2982 RMK A01 T02570218  RH  079%=      5-min Rain = 0
KMD1 200413Z 05006KT 26/22 A2982 RMK A01 T02560219  RH  080%=      5-min Rain = 0
KMD1 200414Z 04005KT 25/22 A2982 RMK A01 T02540219  RH  081%=      5-min Rain = 0
KMD1 200415Z 05005KT 25/22 A2982 RMK A01 T02530219  RH  081%=      5-min Rain = 0
KMD1 200416Z 05005KT 25/22 A2982 RMK A01 T02520219  RH  082%=      5-min Rain = 0
KMD1 200417Z 05005KT 25/22 A2982 RMK A01 T02520219  RH  082%=      5-min Rain = 0
KMD1 200418Z 05003KT 25/22 A2982 RMK A01 T02540218  RH  080%=      5-min Rain = 0
KMD1 200419Z 05004KT 26/22 A2982 RMK A01 T02570218  RH  079%=      5-min Rain = 0
KMD1 200420Z 05003KT 26/22 A2982 RMK A01 T02580218  RH  078%=      5-min Rain = 0
KMD1 200421Z 05005KT 26/22 A2982 RMK A01 T02590217  RH  078%=      5-min Rain = 0
KMD1 200422Z 06007KT 26/22 A2982 RMK A01 T02610217  RH  077%=      5-min Rain = 0
KMD1 200423Z 06006KT 26/22 A2982 RMK A01 T02640218  RH  076%=      5-min Rain = 0
KMD1 200424Z 05007KT 27/22 A2982 RMK A01 T02660218  RH  075%=      5-min Rain = 0
KMD1 200425Z 06008KT 27/22 A2983 RMK A01 T02660219  RH  075%=      5-min Rain = 0
KMD1 200426Z 06009KT 27/22 A2983 RMK A01 T02670219  RH  075%=      5-min Rain = 0
KMD1 200427Z 06009KT 27/22 A2983 RMK A01 T02670220  RH  075%=      5-min Rain = 0
KMD1 200428Z 07008KT 27/22 A2983 RMK A01 T02680220  RH  075%=      5-min Rain = 0
KMD1 200429Z 06008KT 27/22 A2983 RMK A01 T02690220  RH  075%=      5-min Rain = 0
KMD1 200430Z 06009KT 27/22 A2983 RMK A01 T02700220  RH  074%=      5-min Rain = 0
KMD1 200431Z 07007KT 27/22 A2983 RMK A01 T02710221  RH  074%=      5-min Rain = 0
KMD1 200432Z 07006KT 27/22 A2983 RMK A01 T02710220  RH  074%=      5-min Rain = 0
KMD1 200433Z 09004KT 27/22 A2983 RMK A01 T02720221  RH  073%=      5-min Rain = 0
KMD1 200434Z 10005KT 27/22 A2983 RMK A01 T02720221  RH  074%=      5-min Rain = 0
KMD1 200435Z 09005KT 27/22 A2983 RMK A01 T02700222  RH  075%=      5-min Rain = 0
KMD1 200436Z 09005KT 27/22 A2983 RMK A01 T02680222  RH  076%=      5-min Rain = 0
KMD1 200437Z 08003KT 27/22 A2983 RMK A01 T02660221  RH  077%=      5-min Rain = 0
KMD1 200438Z 08005KT 27/22 A2983 RMK A01 T02650222  RH  077%=      5-min Rain = 0
KMD1 200439Z 08005KT 26/22 A2983 RMK A01 T02640220  RH  077%=      5-min Rain = 0
KMD1 200440Z 09006KT 27/22 A2983 RMK A01 T02660221  RH  076%=      5-min Rain = 0
KMD1 200441Z 10005KT 27/22 A2984 RMK A01 T02670220  RH  076%=      5-min Rain = 0
KMD1 200442Z 12004KT 27/22 A2984 RMK A01 T02670221  RH  076%=      5-min Rain = 0
KMD1 200443Z 14003KT 26/22 A2984 RMK A01 T02640222  RH  077%=      5-min Rain = 0
KMD1 200444Z 15003KT 26/22 A2984 RMK A01 T02630222  RH  078%=      5-min Rain = 0
KMD1 200445Z 11003KT 26/22 A2984 RMK A01 T02620221  RH  078%=      5-min Rain = 0
KMD1 200446Z 09003KT 26/22 A2984 RMK A01 T02620220  RH  078%=      5-min Rain = 0
KMD1 200447Z 10003KT 26/22 A2984 RMK A01 T02630220  RH  077%=      5-min Rain = 0
KMD1 200448Z 09004KT 27/22 A2984 RMK A01 T02650220  RH  076%=      5-min Rain = 0
KMD1 200449Z 10005KT 27/22 A2984 RMK A01 T02670220  RH  076%=      5-min Rain = 0
KMD1 200450Z 09004KT 27/22 A2984 RMK A01 T02670221  RH  076%=      5-min Rain = 0
KMD1 200451Z 08004KT 27/22 A2984 RMK A01 T02670221  RH  076%=      5-min Rain = 0
KMD1 200452Z 08005KT 27/22 A2984 RMK A01 T02670222  RH  076%=      5-min Rain = 0
KMD1 200453Z 07005KT 27/22 A2984 RMK A01 T02650222  RH  077%=      5-min Rain = 0
KMD1 200454Z 08005KT 26/22 A2985 RMK A01 T02630222  RH  078%=      5-min Rain = 0
KMD1 200455Z 08005KT 26/22 A2985 RMK A01 T02620222  RH  079%=      5-min Rain = 0
KMD1 200456Z 09004KT 26/22 A2985 RMK A01 T02610222  RH  079%=      5-min Rain = 0
KMD1 200457Z 08004KT 26/22 A2985 RMK A01 T02600222  RH  080%=      5-min Rain = 0
KMD1 200458Z 09003KT 26/22 A2985 RMK A01 T02590222  RH  080%=      5-min Rain = 0
KMD1 200459Z 10003KT 26/22 A2985 RMK A01 T02580222  RH  081%=      5-min Rain = 0

Page generated in 0.0879 seconds.